<?xml version="1.0" encoding="UTF-8" standalone="no" ?>
<gpx xmlns="http://www.topografix.com/GPX/1/1" xmlns:xsi="http://www.w3.org/2001/XMLSchema-instance" xsi:schemaLocation="http://www.topografix.com/GPX/1/1 http://www.topografix.com/GPX/1/1/gpx.xsd" version="1.1" creator="VisuGPX - https://www.visugpx.com">
  <metadata>
    <name>Sentier de l'Adour (5)</name>
    <desc><![CDATA[Quatrième tronçon du sentier de l'Adour entre Maubourguet et Héres. Ce parcours a été fait en Aller-Retour depuis Maubourguet. Seul l'Aller  figure ici (Retour par des petites routes).
]]></desc>
  </metadata>
  <trk>
    <name><![CDATA[26 déc. 2020 à 09:21:28]]></name>
    <cmt><![CDATA[26 déc. 2020 à 09:21:28]]></cmt>
    <trkseg>
      <trkpt lat="43.47034" lon="0.03539">
        <ele>177</ele>
        <time>2020-12-26T08:21:29Z</time>
      </trkpt>
      <trkpt lat="43.47036" lon="0.03542">
        <ele>177</ele>
        <time>2020-12-26T08:21:30Z</time>
      </trkpt>
      <trkpt lat="43.47043" lon="0.03552">
        <ele>177</ele>
        <time>2020-12-26T08:21:52Z</time>
      </trkpt>
      <trkpt lat="43.47054" lon="0.03557">
        <ele>177</ele>
        <time>2020-12-26T08:22:07Z</time>
      </trkpt>
      <trkpt lat="43.47066" lon="0.03576">
        <ele>176</ele>
        <time>2020-12-26T08:22:28Z</time>
      </trkpt>
      <trkpt lat="43.47071" lon="0.03583">
        <ele>175</ele>
        <time>2020-12-26T08:22:34Z</time>
      </trkpt>
      <trkpt lat="43.47092" lon="0.03603">
        <ele>175</ele>
        <time>2020-12-26T08:22:51Z</time>
      </trkpt>
      <trkpt lat="43.47105" lon="0.03628">
        <ele>175</ele>
        <time>2020-12-26T08:23:08Z</time>
      </trkpt>
      <trkpt lat="43.47117" lon="0.03641">
        <ele>175</ele>
        <time>2020-12-26T08:23:19Z</time>
      </trkpt>
      <trkpt lat="43.47124" lon="0.03646">
        <ele>175</ele>
        <time>2020-12-26T08:23:26Z</time>
      </trkpt>
      <trkpt lat="43.47129" lon="0.03653">
        <ele>175</ele>
        <time>2020-12-26T08:23:33Z</time>
      </trkpt>
      <trkpt lat="43.47137" lon="0.03658">
        <ele>175</ele>
        <time>2020-12-26T08:23:40Z</time>
      </trkpt>
      <trkpt lat="43.47155" lon="0.03655">
        <ele>175</ele>
        <time>2020-12-26T08:23:56Z</time>
      </trkpt>
      <trkpt lat="43.47167" lon="0.03667">
        <ele>175</ele>
        <time>2020-12-26T08:24:14Z</time>
      </trkpt>
      <trkpt lat="43.4719" lon="0.03669">
        <ele>175</ele>
        <time>2020-12-26T08:24:40Z</time>
      </trkpt>
      <trkpt lat="43.47197" lon="0.03667">
        <ele>175</ele>
        <time>2020-12-26T08:24:47Z</time>
      </trkpt>
      <trkpt lat="43.47213" lon="0.03666">
        <ele>176</ele>
        <time>2020-12-26T08:25:17Z</time>
      </trkpt>
      <trkpt lat="43.47241" lon="0.03672">
        <ele>175</ele>
        <time>2020-12-26T08:25:38Z</time>
      </trkpt>
      <trkpt lat="43.47275" lon="0.03672">
        <ele>175</ele>
        <time>2020-12-26T08:25:57Z</time>
      </trkpt>
      <trkpt lat="43.47282" lon="0.0367">
        <ele>175</ele>
        <time>2020-12-26T08:26:02Z</time>
      </trkpt>
      <trkpt lat="43.47291" lon="0.03671">
        <ele>176</ele>
        <time>2020-12-26T08:26:10Z</time>
      </trkpt>
      <trkpt lat="43.47299" lon="0.03672">
        <ele>175</ele>
        <time>2020-12-26T08:26:17Z</time>
      </trkpt>
      <trkpt lat="43.47306" lon="0.03671">
        <ele>176</ele>
        <time>2020-12-26T08:26:34Z</time>
      </trkpt>
      <trkpt lat="43.4732" lon="0.03676">
        <ele>176</ele>
        <time>2020-12-26T08:27:05Z</time>
      </trkpt>
      <trkpt lat="43.47328" lon="0.03679">
        <ele>176</ele>
        <time>2020-12-26T08:27:11Z</time>
      </trkpt>
      <trkpt lat="43.47336" lon="0.0368">
        <ele>176</ele>
        <time>2020-12-26T08:27:16Z</time>
      </trkpt>
      <trkpt lat="43.4736" lon="0.03676">
        <ele>176</ele>
        <time>2020-12-26T08:27:35Z</time>
      </trkpt>
      <trkpt lat="43.47368" lon="0.03676">
        <ele>176</ele>
        <time>2020-12-26T08:27:42Z</time>
      </trkpt>
      <trkpt lat="43.47383" lon="0.03681">
        <ele>175</ele>
        <time>2020-12-26T08:27:52Z</time>
      </trkpt>
      <trkpt lat="43.47429" lon="0.0368">
        <ele>175</ele>
        <time>2020-12-26T08:28:27Z</time>
      </trkpt>
      <trkpt lat="43.47469" lon="0.03682">
        <ele>175</ele>
        <time>2020-12-26T08:28:58Z</time>
      </trkpt>
      <trkpt lat="43.4748" lon="0.03685">
        <ele>175</ele>
        <time>2020-12-26T08:29:08Z</time>
      </trkpt>
      <trkpt lat="43.47487" lon="0.03684">
        <ele>175</ele>
        <time>2020-12-26T08:29:15Z</time>
      </trkpt>
      <trkpt lat="43.47514" lon="0.03679">
        <ele>176</ele>
        <time>2020-12-26T08:29:41Z</time>
      </trkpt>
      <trkpt lat="43.47543" lon="0.03685">
        <ele>176</ele>
        <time>2020-12-26T08:30:09Z</time>
      </trkpt>
      <trkpt lat="43.47564" lon="0.03683">
        <ele>176</ele>
        <time>2020-12-26T08:30:29Z</time>
      </trkpt>
      <trkpt lat="43.47571" lon="0.03684">
        <ele>176</ele>
        <time>2020-12-26T08:30:34Z</time>
      </trkpt>
      <trkpt lat="43.47579" lon="0.03679">
        <ele>176</ele>
        <time>2020-12-26T08:30:40Z</time>
      </trkpt>
      <trkpt lat="43.47603" lon="0.03679">
        <ele>176</ele>
        <time>2020-12-26T08:30:57Z</time>
      </trkpt>
      <trkpt lat="43.47612" lon="0.03681">
        <ele>176</ele>
        <time>2020-12-26T08:31:02Z</time>
      </trkpt>
      <trkpt lat="43.47659" lon="0.03675">
        <ele>175</ele>
        <time>2020-12-26T08:31:35Z</time>
      </trkpt>
      <trkpt lat="43.47704" lon="0.0367">
        <ele>175</ele>
        <time>2020-12-26T08:32:07Z</time>
      </trkpt>
      <trkpt lat="43.47746" lon="0.03661">
        <ele>175</ele>
        <time>2020-12-26T08:32:48Z</time>
      </trkpt>
      <trkpt lat="43.47773" lon="0.03655">
        <ele>175</ele>
        <time>2020-12-26T08:33:12Z</time>
      </trkpt>
      <trkpt lat="43.47797" lon="0.03644">
        <ele>174</ele>
        <time>2020-12-26T08:33:36Z</time>
      </trkpt>
      <trkpt lat="43.47817" lon="0.03638">
        <ele>174</ele>
        <time>2020-12-26T08:33:53Z</time>
      </trkpt>
      <trkpt lat="43.47825" lon="0.03633">
        <ele>174</ele>
        <time>2020-12-26T08:34:00Z</time>
      </trkpt>
      <trkpt lat="43.47863" lon="0.03622">
        <ele>174</ele>
        <time>2020-12-26T08:34:25Z</time>
      </trkpt>
      <trkpt lat="43.47891" lon="0.03602">
        <ele>174</ele>
        <time>2020-12-26T08:34:46Z</time>
      </trkpt>
      <trkpt lat="43.47913" lon="0.03571">
        <ele>174</ele>
        <time>2020-12-26T08:35:09Z</time>
      </trkpt>
      <trkpt lat="43.47919" lon="0.03571">
        <ele>174</ele>
        <time>2020-12-26T08:35:13Z</time>
      </trkpt>
      <trkpt lat="43.47947" lon="0.0356">
        <ele>174</ele>
        <time>2020-12-26T08:35:35Z</time>
      </trkpt>
      <trkpt lat="43.47953" lon="0.03556">
        <ele>174</ele>
        <time>2020-12-26T08:35:40Z</time>
      </trkpt>
      <trkpt lat="43.47956" lon="0.0355">
        <ele>174</ele>
        <time>2020-12-26T08:35:46Z</time>
      </trkpt>
      <trkpt lat="43.47996" lon="0.03532">
        <ele>173</ele>
        <time>2020-12-26T08:36:19Z</time>
      </trkpt>
      <trkpt lat="43.48032" lon="0.03509">
        <ele>173</ele>
        <time>2020-12-26T08:36:53Z</time>
      </trkpt>
      <trkpt lat="43.48046" lon="0.03495">
        <ele>173</ele>
        <time>2020-12-26T08:37:10Z</time>
      </trkpt>
      <trkpt lat="43.48056" lon="0.03479">
        <ele>173</ele>
        <time>2020-12-26T08:37:22Z</time>
      </trkpt>
      <trkpt lat="43.48063" lon="0.03474">
        <ele>173</ele>
        <time>2020-12-26T08:37:30Z</time>
      </trkpt>
      <trkpt lat="43.48071" lon="0.03455">
        <ele>173</ele>
        <time>2020-12-26T08:37:45Z</time>
      </trkpt>
      <trkpt lat="43.48077" lon="0.03448">
        <ele>173</ele>
        <time>2020-12-26T08:37:52Z</time>
      </trkpt>
      <trkpt lat="43.48082" lon="0.03438">
        <ele>173</ele>
        <time>2020-12-26T08:37:57Z</time>
      </trkpt>
      <trkpt lat="43.48087" lon="0.03437">
        <ele>173</ele>
        <time>2020-12-26T08:38:21Z</time>
      </trkpt>
      <trkpt lat="43.481" lon="0.03453">
        <ele>173</ele>
        <time>2020-12-26T08:40:13Z</time>
      </trkpt>
      <trkpt lat="43.48115" lon="0.03459">
        <ele>173</ele>
        <time>2020-12-26T08:40:32Z</time>
      </trkpt>
      <trkpt lat="43.48127" lon="0.03463">
        <ele>173</ele>
        <time>2020-12-26T08:40:45Z</time>
      </trkpt>
      <trkpt lat="43.48137" lon="0.03452">
        <ele>173</ele>
        <time>2020-12-26T08:40:59Z</time>
      </trkpt>
      <trkpt lat="43.48147" lon="0.03454">
        <ele>173</ele>
        <time>2020-12-26T08:41:29Z</time>
      </trkpt>
      <trkpt lat="43.48156" lon="0.03452">
        <ele>173</ele>
        <time>2020-12-26T08:41:47Z</time>
      </trkpt>
      <trkpt lat="43.48166" lon="0.03453">
        <ele>173</ele>
        <time>2020-12-26T08:42:22Z</time>
      </trkpt>
      <trkpt lat="43.48168" lon="0.03463">
        <ele>173</ele>
        <time>2020-12-26T08:42:36Z</time>
      </trkpt>
      <trkpt lat="43.48197" lon="0.03439">
        <ele>173</ele>
        <time>2020-12-26T08:43:19Z</time>
      </trkpt>
      <trkpt lat="43.48206" lon="0.03422">
        <ele>173</ele>
        <time>2020-12-26T08:43:36Z</time>
      </trkpt>
      <trkpt lat="43.48214" lon="0.03418">
        <ele>173</ele>
        <time>2020-12-26T08:43:41Z</time>
      </trkpt>
      <trkpt lat="43.48222" lon="0.03417">
        <ele>173</ele>
        <time>2020-12-26T08:43:46Z</time>
      </trkpt>
      <trkpt lat="43.48235" lon="0.03403">
        <ele>172</ele>
        <time>2020-12-26T08:43:56Z</time>
      </trkpt>
      <trkpt lat="43.48244" lon="0.03396">
        <ele>173</ele>
        <time>2020-12-26T08:44:06Z</time>
      </trkpt>
      <trkpt lat="43.48251" lon="0.03393">
        <ele>173</ele>
        <time>2020-12-26T08:44:11Z</time>
      </trkpt>
      <trkpt lat="43.48258" lon="0.03387">
        <ele>173</ele>
        <time>2020-12-26T08:44:18Z</time>
      </trkpt>
      <trkpt lat="43.48264" lon="0.03382">
        <ele>173</ele>
        <time>2020-12-26T08:44:25Z</time>
      </trkpt>
      <trkpt lat="43.4827" lon="0.03375">
        <ele>173</ele>
        <time>2020-12-26T08:44:37Z</time>
      </trkpt>
      <trkpt lat="43.48268" lon="0.0339">
        <ele>172</ele>
        <time>2020-12-26T08:45:18Z</time>
      </trkpt>
      <trkpt lat="43.4826" lon="0.03399">
        <ele>172</ele>
        <time>2020-12-26T08:45:31Z</time>
      </trkpt>
      <trkpt lat="43.48253" lon="0.03405">
        <ele>173</ele>
        <time>2020-12-26T08:45:51Z</time>
      </trkpt>
      <trkpt lat="43.48257" lon="0.03415">
        <ele>173</ele>
        <time>2020-12-26T08:46:00Z</time>
      </trkpt>
      <trkpt lat="43.48258" lon="0.03427">
        <ele>173</ele>
        <time>2020-12-26T08:46:09Z</time>
      </trkpt>
      <trkpt lat="43.48264" lon="0.03434">
        <ele>173</ele>
        <time>2020-12-26T08:46:19Z</time>
      </trkpt>
      <trkpt lat="43.48269" lon="0.03443">
        <ele>172</ele>
        <time>2020-12-26T08:46:39Z</time>
      </trkpt>
      <trkpt lat="43.48272" lon="0.03458">
        <ele>172</ele>
        <time>2020-12-26T08:47:14Z</time>
      </trkpt>
      <trkpt lat="43.48286" lon="0.03462">
        <ele>173</ele>
        <time>2020-12-26T08:47:51Z</time>
      </trkpt>
      <trkpt lat="43.48292" lon="0.03472">
        <ele>173</ele>
        <time>2020-12-26T08:47:58Z</time>
      </trkpt>
      <trkpt lat="43.48306" lon="0.03485">
        <ele>173</ele>
        <time>2020-12-26T08:48:13Z</time>
      </trkpt>
      <trkpt lat="43.48332" lon="0.03494">
        <ele>172</ele>
        <time>2020-12-26T08:48:42Z</time>
      </trkpt>
      <trkpt lat="43.48358" lon="0.03519">
        <ele>172</ele>
        <time>2020-12-26T08:49:13Z</time>
      </trkpt>
      <trkpt lat="43.48367" lon="0.03527">
        <ele>172</ele>
        <time>2020-12-26T08:49:22Z</time>
      </trkpt>
      <trkpt lat="43.48378" lon="0.03529">
        <ele>172</ele>
        <time>2020-12-26T08:49:32Z</time>
      </trkpt>
      <trkpt lat="43.48389" lon="0.03529">
        <ele>172</ele>
        <time>2020-12-26T08:49:42Z</time>
      </trkpt>
      <trkpt lat="43.48412" lon="0.03533">
        <ele>172</ele>
        <time>2020-12-26T08:50:01Z</time>
      </trkpt>
      <trkpt lat="43.48426" lon="0.03522">
        <ele>172</ele>
        <time>2020-12-26T08:50:13Z</time>
      </trkpt>
      <trkpt lat="43.48433" lon="0.03518">
        <ele>172</ele>
        <time>2020-12-26T08:50:21Z</time>
      </trkpt>
      <trkpt lat="43.48478" lon="0.03532">
        <ele>172</ele>
        <time>2020-12-26T08:50:53Z</time>
      </trkpt>
      <trkpt lat="43.48485" lon="0.03533">
        <ele>172</ele>
        <time>2020-12-26T08:50:57Z</time>
      </trkpt>
      <trkpt lat="43.48493" lon="0.03537">
        <ele>172</ele>
        <time>2020-12-26T08:51:03Z</time>
      </trkpt>
      <trkpt lat="43.48503" lon="0.03554">
        <ele>172</ele>
        <time>2020-12-26T08:51:16Z</time>
      </trkpt>
      <trkpt lat="43.48504" lon="0.03565">
        <ele>172</ele>
        <time>2020-12-26T08:51:38Z</time>
      </trkpt>
      <trkpt lat="43.48507" lon="0.03576">
        <ele>172</ele>
        <time>2020-12-26T08:51:53Z</time>
      </trkpt>
      <trkpt lat="43.48519" lon="0.03626">
        <ele>172</ele>
        <time>2020-12-26T08:52:26Z</time>
      </trkpt>
      <trkpt lat="43.48529" lon="0.03667">
        <ele>172</ele>
        <time>2020-12-26T08:52:49Z</time>
      </trkpt>
      <trkpt lat="43.48529" lon="0.03677">
        <ele>171</ele>
        <time>2020-12-26T08:52:54Z</time>
      </trkpt>
      <trkpt lat="43.48537" lon="0.03721">
        <ele>171</ele>
        <time>2020-12-26T08:53:16Z</time>
      </trkpt>
      <trkpt lat="43.48537" lon="0.0373">
        <ele>171</ele>
        <time>2020-12-26T08:53:22Z</time>
      </trkpt>
      <trkpt lat="43.48548" lon="0.03772">
        <ele>171</ele>
        <time>2020-12-26T08:53:51Z</time>
      </trkpt>
      <trkpt lat="43.48553" lon="0.03765">
        <ele>171</ele>
        <time>2020-12-26T08:54:03Z</time>
      </trkpt>
      <trkpt lat="43.48563" lon="0.03746">
        <ele>171</ele>
        <time>2020-12-26T08:54:16Z</time>
      </trkpt>
      <trkpt lat="43.48582" lon="0.03703">
        <ele>171</ele>
        <time>2020-12-26T08:54:44Z</time>
      </trkpt>
      <trkpt lat="43.48592" lon="0.03695">
        <ele>171</ele>
        <time>2020-12-26T08:54:52Z</time>
      </trkpt>
      <trkpt lat="43.48597" lon="0.0369">
        <ele>171</ele>
        <time>2020-12-26T08:54:56Z</time>
      </trkpt>
      <trkpt lat="43.48633" lon="0.03663">
        <ele>171</ele>
        <time>2020-12-26T08:55:27Z</time>
      </trkpt>
      <trkpt lat="43.48666" lon="0.03643">
        <ele>171</ele>
        <time>2020-12-26T08:55:54Z</time>
      </trkpt>
      <trkpt lat="43.48674" lon="0.03641">
        <ele>171</ele>
        <time>2020-12-26T08:55:59Z</time>
      </trkpt>
      <trkpt lat="43.48708" lon="0.03606">
        <ele>171</ele>
        <time>2020-12-26T08:56:32Z</time>
      </trkpt>
      <trkpt lat="43.48713" lon="0.03601">
        <ele>171</ele>
        <time>2020-12-26T08:56:37Z</time>
      </trkpt>
      <trkpt lat="43.48718" lon="0.03599">
        <ele>171</ele>
        <time>2020-12-26T08:56:41Z</time>
      </trkpt>
      <trkpt lat="43.48723" lon="0.03593">
        <ele>171</ele>
        <time>2020-12-26T08:56:47Z</time>
      </trkpt>
      <trkpt lat="43.48739" lon="0.03581">
        <ele>171</ele>
        <time>2020-12-26T08:57:01Z</time>
      </trkpt>
      <trkpt lat="43.48761" lon="0.03561">
        <ele>171</ele>
        <time>2020-12-26T08:57:18Z</time>
      </trkpt>
      <trkpt lat="43.48787" lon="0.03541">
        <ele>170</ele>
        <time>2020-12-26T08:57:40Z</time>
      </trkpt>
      <trkpt lat="43.48828" lon="0.0353">
        <ele>170</ele>
        <time>2020-12-26T08:58:10Z</time>
      </trkpt>
      <trkpt lat="43.48865" lon="0.03515">
        <ele>170</ele>
        <time>2020-12-26T08:58:37Z</time>
      </trkpt>
      <trkpt lat="43.48872" lon="0.03514">
        <ele>170</ele>
        <time>2020-12-26T08:58:42Z</time>
      </trkpt>
      <trkpt lat="43.48912" lon="0.03478">
        <ele>170</ele>
        <time>2020-12-26T08:59:18Z</time>
      </trkpt>
      <trkpt lat="43.4892" lon="0.03471">
        <ele>170</ele>
        <time>2020-12-26T08:59:27Z</time>
      </trkpt>
      <trkpt lat="43.48935" lon="0.03466">
        <ele>170</ele>
        <time>2020-12-26T08:59:39Z</time>
      </trkpt>
      <trkpt lat="43.48962" lon="0.03449">
        <ele>170</ele>
        <time>2020-12-26T09:00:09Z</time>
      </trkpt>
      <trkpt lat="43.48973" lon="0.03439">
        <ele>170</ele>
        <time>2020-12-26T09:00:18Z</time>
      </trkpt>
      <trkpt lat="43.48979" lon="0.03439">
        <ele>170</ele>
        <time>2020-12-26T09:00:24Z</time>
      </trkpt>
      <trkpt lat="43.49012" lon="0.03419">
        <ele>170</ele>
        <time>2020-12-26T09:00:56Z</time>
      </trkpt>
      <trkpt lat="43.49017" lon="0.03413">
        <ele>170</ele>
        <time>2020-12-26T09:01:01Z</time>
      </trkpt>
      <trkpt lat="43.49022" lon="0.0341">
        <ele>170</ele>
        <time>2020-12-26T09:01:05Z</time>
      </trkpt>
      <trkpt lat="43.49031" lon="0.03402">
        <ele>170</ele>
        <time>2020-12-26T09:01:15Z</time>
      </trkpt>
      <trkpt lat="43.49038" lon="0.03408">
        <ele>170</ele>
        <time>2020-12-26T09:01:47Z</time>
      </trkpt>
      <trkpt lat="43.49054" lon="0.03379">
        <ele>170</ele>
        <time>2020-12-26T09:02:09Z</time>
      </trkpt>
      <trkpt lat="43.49068" lon="0.03364">
        <ele>169</ele>
        <time>2020-12-26T09:02:21Z</time>
      </trkpt>
      <trkpt lat="43.49092" lon="0.03328">
        <ele>169</ele>
        <time>2020-12-26T09:02:49Z</time>
      </trkpt>
      <trkpt lat="43.49098" lon="0.03323">
        <ele>169</ele>
        <time>2020-12-26T09:02:54Z</time>
      </trkpt>
      <trkpt lat="43.49118" lon="0.03294">
        <ele>168</ele>
        <time>2020-12-26T09:03:15Z</time>
      </trkpt>
      <trkpt lat="43.4915" lon="0.03254">
        <ele>168</ele>
        <time>2020-12-26T09:03:45Z</time>
      </trkpt>
      <trkpt lat="43.49154" lon="0.03248">
        <ele>168</ele>
        <time>2020-12-26T09:03:49Z</time>
      </trkpt>
      <trkpt lat="43.49176" lon="0.03226">
        <ele>168</ele>
        <time>2020-12-26T09:04:11Z</time>
      </trkpt>
      <trkpt lat="43.49186" lon="0.03212">
        <ele>168</ele>
        <time>2020-12-26T09:04:26Z</time>
      </trkpt>
      <trkpt lat="43.49222" lon="0.03189">
        <ele>168</ele>
        <time>2020-12-26T09:04:56Z</time>
      </trkpt>
      <trkpt lat="43.49227" lon="0.03186">
        <ele>168</ele>
        <time>2020-12-26T09:05:00Z</time>
      </trkpt>
      <trkpt lat="43.49253" lon="0.03177">
        <ele>168</ele>
        <time>2020-12-26T09:05:33Z</time>
      </trkpt>
      <trkpt lat="43.49268" lon="0.03172">
        <ele>168</ele>
        <time>2020-12-26T09:05:43Z</time>
      </trkpt>
      <trkpt lat="43.49298" lon="0.03167">
        <ele>168</ele>
        <time>2020-12-26T09:06:13Z</time>
      </trkpt>
      <trkpt lat="43.49343" lon="0.03165">
        <ele>168</ele>
        <time>2020-12-26T09:06:45Z</time>
      </trkpt>
      <trkpt lat="43.49363" lon="0.0316">
        <ele>168</ele>
        <time>2020-12-26T09:07:01Z</time>
      </trkpt>
      <trkpt lat="43.4937" lon="0.03136">
        <ele>168</ele>
        <time>2020-12-26T09:07:15Z</time>
      </trkpt>
      <trkpt lat="43.49396" lon="0.03091">
        <ele>168</ele>
        <time>2020-12-26T09:07:48Z</time>
      </trkpt>
      <trkpt lat="43.49403" lon="0.0308">
        <ele>168</ele>
        <time>2020-12-26T09:07:56Z</time>
      </trkpt>
      <trkpt lat="43.49428" lon="0.03056">
        <ele>168</ele>
        <time>2020-12-26T09:08:20Z</time>
      </trkpt>
      <trkpt lat="43.49442" lon="0.03034">
        <ele>168</ele>
        <time>2020-12-26T09:08:38Z</time>
      </trkpt>
      <trkpt lat="43.49452" lon="0.03026">
        <ele>168</ele>
        <time>2020-12-26T09:08:48Z</time>
      </trkpt>
      <trkpt lat="43.49488" lon="0.02984">
        <ele>168</ele>
        <time>2020-12-26T09:09:20Z</time>
      </trkpt>
      <trkpt lat="43.49494" lon="0.02979">
        <ele>168</ele>
        <time>2020-12-26T09:09:24Z</time>
      </trkpt>
      <trkpt lat="43.49501" lon="0.02975">
        <ele>168</ele>
        <time>2020-12-26T09:09:30Z</time>
      </trkpt>
      <trkpt lat="43.49508" lon="0.02974">
        <ele>168</ele>
        <time>2020-12-26T09:09:37Z</time>
      </trkpt>
      <trkpt lat="43.49529" lon="0.02982">
        <ele>167</ele>
        <time>2020-12-26T09:09:56Z</time>
      </trkpt>
      <trkpt lat="43.49537" lon="0.02987">
        <ele>167</ele>
        <time>2020-12-26T09:10:03Z</time>
      </trkpt>
      <trkpt lat="43.49561" lon="0.02983">
        <ele>167</ele>
        <time>2020-12-26T09:10:26Z</time>
      </trkpt>
      <trkpt lat="43.49602" lon="0.02971">
        <ele>167</ele>
        <time>2020-12-26T09:10:57Z</time>
      </trkpt>
      <trkpt lat="43.49609" lon="0.02971">
        <ele>167</ele>
        <time>2020-12-26T09:11:02Z</time>
      </trkpt>
      <trkpt lat="43.49619" lon="0.02967">
        <ele>167</ele>
        <time>2020-12-26T09:11:11Z</time>
      </trkpt>
      <trkpt lat="43.49629" lon="0.02968">
        <ele>167</ele>
        <time>2020-12-26T09:11:17Z</time>
      </trkpt>
      <trkpt lat="43.49653" lon="0.0296">
        <ele>167</ele>
        <time>2020-12-26T09:11:34Z</time>
      </trkpt>
      <trkpt lat="43.49663" lon="0.02955">
        <ele>167</ele>
        <time>2020-12-26T09:11:55Z</time>
      </trkpt>
      <trkpt lat="43.49679" lon="0.02952">
        <ele>167</ele>
        <time>2020-12-26T09:12:08Z</time>
      </trkpt>
      <trkpt lat="43.49694" lon="0.02943">
        <ele>167</ele>
        <time>2020-12-26T09:12:42Z</time>
      </trkpt>
      <trkpt lat="43.49728" lon="0.02937">
        <ele>167</ele>
        <time>2020-12-26T09:13:20Z</time>
      </trkpt>
      <trkpt lat="43.49735" lon="0.02938">
        <ele>167</ele>
        <time>2020-12-26T09:13:24Z</time>
      </trkpt>
      <trkpt lat="43.49757" lon="0.02931">
        <ele>167</ele>
        <time>2020-12-26T09:13:40Z</time>
      </trkpt>
      <trkpt lat="43.49774" lon="0.02936">
        <ele>167</ele>
        <time>2020-12-26T09:13:49Z</time>
      </trkpt>
      <trkpt lat="43.4978" lon="0.02939">
        <ele>167</ele>
        <time>2020-12-26T09:13:55Z</time>
      </trkpt>
      <trkpt lat="43.49789" lon="0.02938">
        <ele>167</ele>
        <time>2020-12-26T09:14:10Z</time>
      </trkpt>
      <trkpt lat="43.49803" lon="0.02938">
        <ele>167</ele>
        <time>2020-12-26T09:14:29Z</time>
      </trkpt>
      <trkpt lat="43.49807" lon="0.02942">
        <ele>167</ele>
        <time>2020-12-26T09:14:45Z</time>
      </trkpt>
      <trkpt lat="43.49814" lon="0.02944">
        <ele>167</ele>
        <time>2020-12-26T09:15:25Z</time>
      </trkpt>
      <trkpt lat="43.49812" lon="0.02941">
        <ele>167</ele>
        <time>2020-12-26T09:15:56Z</time>
      </trkpt>
      <trkpt lat="43.49809" lon="0.02941">
        <ele>167</ele>
        <time>2020-12-26T09:17:07Z</time>
      </trkpt>
      <trkpt lat="43.49804" lon="0.02938">
        <ele>167</ele>
        <time>2020-12-26T09:17:12Z</time>
      </trkpt>
      <trkpt lat="43.49798" lon="0.0293">
        <ele>167</ele>
        <time>2020-12-26T09:17:20Z</time>
      </trkpt>
      <trkpt lat="43.49796" lon="0.02918">
        <ele>168</ele>
        <time>2020-12-26T09:17:38Z</time>
      </trkpt>
      <trkpt lat="43.49806" lon="0.02893">
        <ele>169</ele>
        <time>2020-12-26T09:17:56Z</time>
      </trkpt>
      <trkpt lat="43.49809" lon="0.02887">
        <ele>169</ele>
        <time>2020-12-26T09:18:01Z</time>
      </trkpt>
      <trkpt lat="43.49818" lon="0.02877">
        <ele>170</ele>
        <time>2020-12-26T09:18:09Z</time>
      </trkpt>
      <trkpt lat="43.49829" lon="0.02839">
        <ele>170</ele>
        <time>2020-12-26T09:18:32Z</time>
      </trkpt>
      <trkpt lat="43.49835" lon="0.02824">
        <ele>170</ele>
        <time>2020-12-26T09:18:42Z</time>
      </trkpt>
      <trkpt lat="43.49836" lon="0.02813">
        <ele>170</ele>
        <time>2020-12-26T09:18:50Z</time>
      </trkpt>
      <trkpt lat="43.49843" lon="0.02794">
        <ele>170</ele>
        <time>2020-12-26T09:19:04Z</time>
      </trkpt>
      <trkpt lat="43.49846" lon="0.02778">
        <ele>169</ele>
        <time>2020-12-26T09:19:15Z</time>
      </trkpt>
      <trkpt lat="43.49855" lon="0.02755">
        <ele>168</ele>
        <time>2020-12-26T09:19:30Z</time>
      </trkpt>
      <trkpt lat="43.49856" lon="0.02748">
        <ele>167</ele>
        <time>2020-12-26T09:19:36Z</time>
      </trkpt>
      <trkpt lat="43.49855" lon="0.02739">
        <ele>167</ele>
        <time>2020-12-26T09:19:41Z</time>
      </trkpt>
      <trkpt lat="43.49864" lon="0.0274">
        <ele>166</ele>
        <time>2020-12-26T09:19:56Z</time>
      </trkpt>
      <trkpt lat="43.49904" lon="0.02741">
        <ele>165</ele>
        <time>2020-12-26T09:20:26Z</time>
      </trkpt>
      <trkpt lat="43.49942" lon="0.02745">
        <ele>165</ele>
        <time>2020-12-26T09:20:55Z</time>
      </trkpt>
      <trkpt lat="43.49958" lon="0.02749">
        <ele>165</ele>
        <time>2020-12-26T09:21:07Z</time>
      </trkpt>
      <trkpt lat="43.5" lon="0.02749">
        <ele>165</ele>
        <time>2020-12-26T09:21:37Z</time>
      </trkpt>
      <trkpt lat="43.50006" lon="0.02748">
        <ele>165</ele>
        <time>2020-12-26T09:21:41Z</time>
      </trkpt>
      <trkpt lat="43.50052" lon="0.02761">
        <ele>165</ele>
        <time>2020-12-26T09:22:16Z</time>
      </trkpt>
      <trkpt lat="43.50097" lon="0.02767">
        <ele>165</ele>
        <time>2020-12-26T09:22:49Z</time>
      </trkpt>
      <trkpt lat="43.50111" lon="0.02771">
        <ele>165</ele>
        <time>2020-12-26T09:23:00Z</time>
      </trkpt>
      <trkpt lat="43.50124" lon="0.02772">
        <ele>165</ele>
        <time>2020-12-26T09:23:12Z</time>
      </trkpt>
      <trkpt lat="43.50145" lon="0.02776">
        <ele>165</ele>
        <time>2020-12-26T09:23:31Z</time>
      </trkpt>
      <trkpt lat="43.50165" lon="0.02778">
        <ele>166</ele>
        <time>2020-12-26T09:23:45Z</time>
      </trkpt>
      <trkpt lat="43.50184" lon="0.0279">
        <ele>166</ele>
        <time>2020-12-26T09:24:01Z</time>
      </trkpt>
      <trkpt lat="43.50201" lon="0.02846">
        <ele>166</ele>
        <time>2020-12-26T09:24:36Z</time>
      </trkpt>
      <trkpt lat="43.50209" lon="0.02863">
        <ele>166</ele>
        <time>2020-12-26T09:24:48Z</time>
      </trkpt>
      <trkpt lat="43.5022" lon="0.02877">
        <ele>166</ele>
        <time>2020-12-26T09:24:59Z</time>
      </trkpt>
      <trkpt lat="43.50261" lon="0.02874">
        <ele>166</ele>
        <time>2020-12-26T09:25:34Z</time>
      </trkpt>
      <trkpt lat="43.50269" lon="0.02874">
        <ele>166</ele>
        <time>2020-12-26T09:25:42Z</time>
      </trkpt>
      <trkpt lat="43.50279" lon="0.02871">
        <ele>165</ele>
        <time>2020-12-26T09:25:51Z</time>
      </trkpt>
      <trkpt lat="43.50295" lon="0.02872">
        <ele>165</ele>
        <time>2020-12-26T09:26:04Z</time>
      </trkpt>
      <trkpt lat="43.5031" lon="0.02874">
        <ele>165</ele>
        <time>2020-12-26T09:26:15Z</time>
      </trkpt>
      <trkpt lat="43.50326" lon="0.02874">
        <ele>165</ele>
        <time>2020-12-26T09:26:25Z</time>
      </trkpt>
      <trkpt lat="43.5035" lon="0.02874">
        <ele>165</ele>
        <time>2020-12-26T09:26:47Z</time>
      </trkpt>
      <trkpt lat="43.5039" lon="0.02868">
        <ele>165</ele>
        <time>2020-12-26T09:27:21Z</time>
      </trkpt>
      <trkpt lat="43.50406" lon="0.02867">
        <ele>165</ele>
        <time>2020-12-26T09:27:32Z</time>
      </trkpt>
      <trkpt lat="43.50414" lon="0.02868">
        <ele>165</ele>
        <time>2020-12-26T09:27:37Z</time>
      </trkpt>
      <trkpt lat="43.50437" lon="0.02866">
        <ele>165</ele>
        <time>2020-12-26T09:27:58Z</time>
      </trkpt>
      <trkpt lat="43.50468" lon="0.02869">
        <ele>165</ele>
        <time>2020-12-26T09:28:27Z</time>
      </trkpt>
      <trkpt lat="43.50484" lon="0.02865">
        <ele>165</ele>
        <time>2020-12-26T09:28:38Z</time>
      </trkpt>
      <trkpt lat="43.50491" lon="0.02867">
        <ele>165</ele>
        <time>2020-12-26T09:28:44Z</time>
      </trkpt>
      <trkpt lat="43.50495" lon="0.02876">
        <ele>165</ele>
        <time>2020-12-26T09:28:52Z</time>
      </trkpt>
      <trkpt lat="43.50496" lon="0.02885">
        <ele>165</ele>
        <time>2020-12-26T09:29:00Z</time>
      </trkpt>
      <trkpt lat="43.50502" lon="0.02902">
        <ele>165</ele>
        <time>2020-12-26T09:29:14Z</time>
      </trkpt>
      <trkpt lat="43.5051" lon="0.02958">
        <ele>165</ele>
        <time>2020-12-26T09:29:49Z</time>
      </trkpt>
      <trkpt lat="43.50518" lon="0.02989">
        <ele>165</ele>
        <time>2020-12-26T09:30:04Z</time>
      </trkpt>
      <trkpt lat="43.50538" lon="0.03037">
        <ele>165</ele>
        <time>2020-12-26T09:30:37Z</time>
      </trkpt>
      <trkpt lat="43.50539" lon="0.03053">
        <ele>165</ele>
        <time>2020-12-26T09:31:02Z</time>
      </trkpt>
      <trkpt lat="43.5055" lon="0.03069">
        <ele>164</ele>
        <time>2020-12-26T09:31:36Z</time>
      </trkpt>
      <trkpt lat="43.50554" lon="0.03078">
        <ele>164</ele>
        <time>2020-12-26T09:31:56Z</time>
      </trkpt>
      <trkpt lat="43.5055" lon="0.03092">
        <ele>164</ele>
        <time>2020-12-26T09:32:19Z</time>
      </trkpt>
      <trkpt lat="43.50556" lon="0.031">
        <ele>164</ele>
        <time>2020-12-26T09:32:32Z</time>
      </trkpt>
      <trkpt lat="43.50563" lon="0.03108">
        <ele>164</ele>
        <time>2020-12-26T09:32:47Z</time>
      </trkpt>
      <trkpt lat="43.50569" lon="0.0312">
        <ele>164</ele>
        <time>2020-12-26T09:33:00Z</time>
      </trkpt>
      <trkpt lat="43.50566" lon="0.03131">
        <ele>164</ele>
        <time>2020-12-26T09:33:11Z</time>
      </trkpt>
      <trkpt lat="43.5057" lon="0.03139">
        <ele>164</ele>
        <time>2020-12-26T09:33:18Z</time>
      </trkpt>
      <trkpt lat="43.50583" lon="0.03136">
        <ele>164</ele>
        <time>2020-12-26T09:33:42Z</time>
      </trkpt>
      <trkpt lat="43.5059" lon="0.03129">
        <ele>164</ele>
        <time>2020-12-26T09:33:54Z</time>
      </trkpt>
      <trkpt lat="43.50604" lon="0.03103">
        <ele>164</ele>
        <time>2020-12-26T09:34:18Z</time>
      </trkpt>
      <trkpt lat="43.50616" lon="0.03088">
        <ele>164</ele>
        <time>2020-12-26T09:34:43Z</time>
      </trkpt>
      <trkpt lat="43.50628" lon="0.0308">
        <ele>164</ele>
        <time>2020-12-26T09:34:56Z</time>
      </trkpt>
      <trkpt lat="43.50631" lon="0.03071">
        <ele>164</ele>
        <time>2020-12-26T09:35:02Z</time>
      </trkpt>
      <trkpt lat="43.50634" lon="0.03063">
        <ele>164</ele>
        <time>2020-12-26T09:35:13Z</time>
      </trkpt>
      <trkpt lat="43.50651" lon="0.03061">
        <ele>164</ele>
        <time>2020-12-26T09:35:49Z</time>
      </trkpt>
      <trkpt lat="43.5067" lon="0.03071">
        <ele>164</ele>
        <time>2020-12-26T09:36:07Z</time>
      </trkpt>
      <trkpt lat="43.50687" lon="0.03054">
        <ele>163</ele>
        <time>2020-12-26T09:36:32Z</time>
      </trkpt>
      <trkpt lat="43.50698" lon="0.03038">
        <ele>163</ele>
        <time>2020-12-26T09:36:46Z</time>
      </trkpt>
      <trkpt lat="43.50701" lon="0.02998">
        <ele>163</ele>
        <time>2020-12-26T09:37:08Z</time>
      </trkpt>
      <trkpt lat="43.50762" lon="0.02939">
        <ele>163</ele>
        <time>2020-12-26T09:38:30Z</time>
      </trkpt>
      <trkpt lat="43.50845" lon="0.02933">
        <ele>163</ele>
        <time>2020-12-26T09:39:27Z</time>
      </trkpt>
      <trkpt lat="43.50934" lon="0.02933">
        <ele>162</ele>
        <time>2020-12-26T09:40:04Z</time>
      </trkpt>
      <trkpt lat="43.5099" lon="0.02962">
        <ele>162</ele>
        <time>2020-12-26T09:40:49Z</time>
      </trkpt>
      <trkpt lat="43.51" lon="0.02972">
        <ele>162</ele>
        <time>2020-12-26T09:41:02Z</time>
      </trkpt>
      <trkpt lat="43.51006" lon="0.02979">
        <ele>162</ele>
        <time>2020-12-26T09:41:42Z</time>
      </trkpt>
      <trkpt lat="43.51022" lon="0.03006">
        <ele>162</ele>
        <time>2020-12-26T09:42:11Z</time>
      </trkpt>
      <trkpt lat="43.51027" lon="0.03011">
        <ele>162</ele>
        <time>2020-12-26T09:42:21Z</time>
      </trkpt>
      <trkpt lat="43.5105" lon="0.03014">
        <ele>162</ele>
        <time>2020-12-26T09:42:40Z</time>
      </trkpt>
      <trkpt lat="43.51063" lon="0.03027">
        <ele>162</ele>
        <time>2020-12-26T09:42:52Z</time>
      </trkpt>
      <trkpt lat="43.51094" lon="0.03038">
        <ele>162</ele>
        <time>2020-12-26T09:43:13Z</time>
      </trkpt>
      <trkpt lat="43.51101" lon="0.03037">
        <ele>162</ele>
        <time>2020-12-26T09:43:20Z</time>
      </trkpt>
      <trkpt lat="43.51108" lon="0.03039">
        <ele>162</ele>
        <time>2020-12-26T09:43:26Z</time>
      </trkpt>
      <trkpt lat="43.51115" lon="0.03044">
        <ele>162</ele>
        <time>2020-12-26T09:43:32Z</time>
      </trkpt>
      <trkpt lat="43.51131" lon="0.03048">
        <ele>162</ele>
        <time>2020-12-26T09:43:43Z</time>
      </trkpt>
      <trkpt lat="43.51138" lon="0.03052">
        <ele>162</ele>
        <time>2020-12-26T09:43:49Z</time>
      </trkpt>
      <trkpt lat="43.51161" lon="0.03059">
        <ele>162</ele>
        <time>2020-12-26T09:44:21Z</time>
      </trkpt>
      <trkpt lat="43.51178" lon="0.03068">
        <ele>162</ele>
        <time>2020-12-26T09:44:36Z</time>
      </trkpt>
      <trkpt lat="43.51183" lon="0.03075">
        <ele>162</ele>
        <time>2020-12-26T09:44:41Z</time>
      </trkpt>
      <trkpt lat="43.5119" lon="0.03097">
        <ele>161</ele>
        <time>2020-12-26T09:44:54Z</time>
      </trkpt>
      <trkpt lat="43.51194" lon="0.03102">
        <ele>161</ele>
        <time>2020-12-26T09:45:03Z</time>
      </trkpt>
      <trkpt lat="43.51212" lon="0.03128">
        <ele>161</ele>
        <time>2020-12-26T09:45:28Z</time>
      </trkpt>
      <trkpt lat="43.51215" lon="0.03144">
        <ele>162</ele>
        <time>2020-12-26T09:45:38Z</time>
      </trkpt>
      <trkpt lat="43.51214" lon="0.03152">
        <ele>162</ele>
        <time>2020-12-26T09:45:43Z</time>
      </trkpt>
      <trkpt lat="43.51221" lon="0.03203">
        <ele>162</ele>
        <time>2020-12-26T09:46:09Z</time>
      </trkpt>
      <trkpt lat="43.51225" lon="0.03209">
        <ele>162</ele>
        <time>2020-12-26T09:46:14Z</time>
      </trkpt>
      <trkpt lat="43.51229" lon="0.03214">
        <ele>162</ele>
        <time>2020-12-26T09:46:18Z</time>
      </trkpt>
      <trkpt lat="43.51236" lon="0.03219">
        <ele>162</ele>
        <time>2020-12-26T09:46:35Z</time>
      </trkpt>
      <trkpt lat="43.51262" lon="0.03237">
        <ele>162</ele>
        <time>2020-12-26T09:47:05Z</time>
      </trkpt>
      <trkpt lat="43.5127" lon="0.0324">
        <ele>162</ele>
        <time>2020-12-26T09:47:12Z</time>
      </trkpt>
      <trkpt lat="43.51279" lon="0.0324">
        <ele>162</ele>
        <time>2020-12-26T09:47:22Z</time>
      </trkpt>
      <trkpt lat="43.51289" lon="0.0325">
        <ele>161</ele>
        <time>2020-12-26T09:47:38Z</time>
      </trkpt>
      <trkpt lat="43.51288" lon="0.03262">
        <ele>161</ele>
        <time>2020-12-26T09:47:44Z</time>
      </trkpt>
      <trkpt lat="43.51285" lon="0.03272">
        <ele>160</ele>
        <time>2020-12-26T09:47:49Z</time>
      </trkpt>
      <trkpt lat="43.51283" lon="0.0328">
        <ele>160</ele>
        <time>2020-12-26T09:48:33Z</time>
      </trkpt>
      <trkpt lat="43.51281" lon="0.03294">
        <ele>160</ele>
        <time>2020-12-26T09:48:52Z</time>
      </trkpt>
      <trkpt lat="43.51283" lon="0.03302">
        <ele>160</ele>
        <time>2020-12-26T09:48:57Z</time>
      </trkpt>
      <trkpt lat="43.51282" lon="0.03316">
        <ele>160</ele>
        <time>2020-12-26T09:49:11Z</time>
      </trkpt>
      <trkpt lat="43.51283" lon="0.03326">
        <ele>160</ele>
        <time>2020-12-26T09:49:20Z</time>
      </trkpt>
      <trkpt lat="43.51277" lon="0.03371">
        <ele>160</ele>
        <time>2020-12-26T09:49:51Z</time>
      </trkpt>
      <trkpt lat="43.51277" lon="0.03385">
        <ele>160</ele>
        <time>2020-12-26T09:50:06Z</time>
      </trkpt>
      <trkpt lat="43.51272" lon="0.03422">
        <ele>160</ele>
        <time>2020-12-26T09:50:24Z</time>
      </trkpt>
      <trkpt lat="43.51273" lon="0.03462">
        <ele>160</ele>
        <time>2020-12-26T09:50:45Z</time>
      </trkpt>
      <trkpt lat="43.51283" lon="0.03526">
        <ele>160</ele>
        <time>2020-12-26T09:51:16Z</time>
      </trkpt>
      <trkpt lat="43.51287" lon="0.03572">
        <ele>161</ele>
        <time>2020-12-26T09:51:47Z</time>
      </trkpt>
      <trkpt lat="43.5129" lon="0.03592">
        <ele>161</ele>
        <time>2020-12-26T09:51:57Z</time>
      </trkpt>
      <trkpt lat="43.51295" lon="0.03612">
        <ele>162</ele>
        <time>2020-12-26T09:52:12Z</time>
      </trkpt>
      <trkpt lat="43.51295" lon="0.03634">
        <ele>162</ele>
        <time>2020-12-26T09:52:25Z</time>
      </trkpt>
      <trkpt lat="43.51296" lon="0.03667">
        <ele>164</ele>
        <time>2020-12-26T09:52:51Z</time>
      </trkpt>
      <trkpt lat="43.51292" lon="0.03674">
        <ele>164</ele>
        <time>2020-12-26T09:53:16Z</time>
      </trkpt>
      <trkpt lat="43.51299" lon="0.03673">
        <ele>164</ele>
        <time>2020-12-26T09:54:41Z</time>
      </trkpt>
      <trkpt lat="43.51323" lon="0.03673">
        <ele>164</ele>
        <time>2020-12-26T09:55:17Z</time>
      </trkpt>
      <trkpt lat="43.5134" lon="0.03664">
        <ele>164</ele>
        <time>2020-12-26T09:55:36Z</time>
      </trkpt>
      <trkpt lat="43.51377" lon="0.03661">
        <ele>165</ele>
        <time>2020-12-26T09:56:04Z</time>
      </trkpt>
      <trkpt lat="43.51385" lon="0.03663">
        <ele>165</ele>
        <time>2020-12-26T09:56:11Z</time>
      </trkpt>
      <trkpt lat="43.514" lon="0.0366">
        <ele>165</ele>
        <time>2020-12-26T09:56:22Z</time>
      </trkpt>
      <trkpt lat="43.51423" lon="0.03664">
        <ele>165</ele>
        <time>2020-12-26T09:56:36Z</time>
      </trkpt>
      <trkpt lat="43.51458" lon="0.03655">
        <ele>165</ele>
        <time>2020-12-26T09:57:03Z</time>
      </trkpt>
      <trkpt lat="43.51465" lon="0.03655">
        <ele>165</ele>
        <time>2020-12-26T09:57:10Z</time>
      </trkpt>
      <trkpt lat="43.51484" lon="0.03661">
        <ele>165</ele>
        <time>2020-12-26T09:57:27Z</time>
      </trkpt>
      <trkpt lat="43.51499" lon="0.03659">
        <ele>165</ele>
        <time>2020-12-26T09:57:36Z</time>
      </trkpt>
      <trkpt lat="43.51515" lon="0.03664">
        <ele>165</ele>
        <time>2020-12-26T09:57:48Z</time>
      </trkpt>
      <trkpt lat="43.51523" lon="0.0366">
        <ele>165</ele>
        <time>2020-12-26T09:57:53Z</time>
      </trkpt>
      <trkpt lat="43.51562" lon="0.03669">
        <ele>165</ele>
        <time>2020-12-26T09:58:24Z</time>
      </trkpt>
      <trkpt lat="43.51595" lon="0.0366">
        <ele>165</ele>
        <time>2020-12-26T09:58:55Z</time>
      </trkpt>
      <trkpt lat="43.51626" lon="0.03655">
        <ele>165</ele>
        <time>2020-12-26T09:59:20Z</time>
      </trkpt>
      <trkpt lat="43.5163" lon="0.03646">
        <ele>164</ele>
        <time>2020-12-26T09:59:25Z</time>
      </trkpt>
      <trkpt lat="43.51629" lon="0.03636">
        <ele>164</ele>
        <time>2020-12-26T09:59:30Z</time>
      </trkpt>
      <trkpt lat="43.5163" lon="0.03628">
        <ele>164</ele>
        <time>2020-12-26T09:59:34Z</time>
      </trkpt>
      <trkpt lat="43.51629" lon="0.0362">
        <ele>164</ele>
        <time>2020-12-26T09:59:38Z</time>
      </trkpt>
      <trkpt lat="43.51629" lon="0.03611">
        <ele>164</ele>
        <time>2020-12-26T09:59:45Z</time>
      </trkpt>
      <trkpt lat="43.51626" lon="0.03605">
        <ele>164</ele>
        <time>2020-12-26T09:59:50Z</time>
      </trkpt>
      <trkpt lat="43.51619" lon="0.03562">
        <ele>163</ele>
        <time>2020-12-26T10:00:14Z</time>
      </trkpt>
      <trkpt lat="43.51623" lon="0.03546">
        <ele>163</ele>
        <time>2020-12-26T10:00:27Z</time>
      </trkpt>
      <trkpt lat="43.5163" lon="0.03544">
        <ele>162</ele>
        <time>2020-12-26T10:01:07Z</time>
      </trkpt>
      <trkpt lat="43.51641" lon="0.03542">
        <ele>162</ele>
        <time>2020-12-26T10:01:25Z</time>
      </trkpt>
      <trkpt lat="43.51648" lon="0.03535">
        <ele>162</ele>
        <time>2020-12-26T10:01:32Z</time>
      </trkpt>
      <trkpt lat="43.51652" lon="0.03532">
        <ele>162</ele>
        <time>2020-12-26T10:02:14Z</time>
      </trkpt>
      <trkpt lat="43.5166" lon="0.03533">
        <ele>162</ele>
        <time>2020-12-26T10:02:45Z</time>
      </trkpt>
      <trkpt lat="43.51669" lon="0.03529">
        <ele>162</ele>
        <time>2020-12-26T10:02:55Z</time>
      </trkpt>
      <trkpt lat="43.51687" lon="0.03511">
        <ele>162</ele>
        <time>2020-12-26T10:03:10Z</time>
      </trkpt>
      <trkpt lat="43.51696" lon="0.03496">
        <ele>162</ele>
        <time>2020-12-26T10:03:18Z</time>
      </trkpt>
      <trkpt lat="43.51702" lon="0.0348">
        <ele>162</ele>
        <time>2020-12-26T10:03:26Z</time>
      </trkpt>
      <trkpt lat="43.51711" lon="0.03469">
        <ele>162</ele>
        <time>2020-12-26T10:03:33Z</time>
      </trkpt>
      <trkpt lat="43.51731" lon="0.03424">
        <ele>161</ele>
        <time>2020-12-26T10:04:04Z</time>
      </trkpt>
      <trkpt lat="43.51749" lon="0.03391">
        <ele>161</ele>
        <time>2020-12-26T10:04:26Z</time>
      </trkpt>
      <trkpt lat="43.51754" lon="0.03384">
        <ele>161</ele>
        <time>2020-12-26T10:04:31Z</time>
      </trkpt>
      <trkpt lat="43.51762" lon="0.03368">
        <ele>161</ele>
        <time>2020-12-26T10:04:43Z</time>
      </trkpt>
      <trkpt lat="43.51771" lon="0.03356">
        <ele>161</ele>
        <time>2020-12-26T10:04:52Z</time>
      </trkpt>
      <trkpt lat="43.51778" lon="0.03342">
        <ele>161</ele>
        <time>2020-12-26T10:05:02Z</time>
      </trkpt>
      <trkpt lat="43.51783" lon="0.03338">
        <ele>161</ele>
        <time>2020-12-26T10:05:07Z</time>
      </trkpt>
      <trkpt lat="43.51793" lon="0.03314">
        <ele>161</ele>
        <time>2020-12-26T10:05:22Z</time>
      </trkpt>
      <trkpt lat="43.51795" lon="0.03305">
        <ele>161</ele>
        <time>2020-12-26T10:05:28Z</time>
      </trkpt>
      <trkpt lat="43.51807" lon="0.03287">
        <ele>161</ele>
        <time>2020-12-26T10:05:45Z</time>
      </trkpt>
      <trkpt lat="43.51814" lon="0.03281">
        <ele>162</ele>
        <time>2020-12-26T10:05:51Z</time>
      </trkpt>
      <trkpt lat="43.51822" lon="0.0328">
        <ele>161</ele>
        <time>2020-12-26T10:05:56Z</time>
      </trkpt>
      <trkpt lat="43.51836" lon="0.03269">
        <ele>161</ele>
        <time>2020-12-26T10:06:10Z</time>
      </trkpt>
      <trkpt lat="43.51852" lon="0.03247">
        <ele>161</ele>
        <time>2020-12-26T10:06:26Z</time>
      </trkpt>
      <trkpt lat="43.51859" lon="0.0324">
        <ele>161</ele>
        <time>2020-12-26T10:06:32Z</time>
      </trkpt>
      <trkpt lat="43.51863" lon="0.03233">
        <ele>161</ele>
        <time>2020-12-26T10:06:39Z</time>
      </trkpt>
      <trkpt lat="43.51868" lon="0.03236">
        <ele>161</ele>
        <time>2020-12-26T10:08:00Z</time>
      </trkpt>
      <trkpt lat="43.51882" lon="0.03231">
        <ele>161</ele>
        <time>2020-12-26T10:08:29Z</time>
      </trkpt>
      <trkpt lat="43.51887" lon="0.03225">
        <ele>161</ele>
        <time>2020-12-26T10:08:34Z</time>
      </trkpt>
      <trkpt lat="43.51895" lon="0.03222">
        <ele>161</ele>
        <time>2020-12-26T10:08:40Z</time>
      </trkpt>
      <trkpt lat="43.51908" lon="0.0322">
        <ele>161</ele>
        <time>2020-12-26T10:08:51Z</time>
      </trkpt>
      <trkpt lat="43.51947" lon="0.03227">
        <ele>161</ele>
        <time>2020-12-26T10:09:23Z</time>
      </trkpt>
      <trkpt lat="43.51994" lon="0.03224">
        <ele>161</ele>
        <time>2020-12-26T10:09:57Z</time>
      </trkpt>
      <trkpt lat="43.52026" lon="0.03223">
        <ele>161</ele>
        <time>2020-12-26T10:10:23Z</time>
      </trkpt>
      <trkpt lat="43.52056" lon="0.03214">
        <ele>161</ele>
        <time>2020-12-26T10:10:44Z</time>
      </trkpt>
      <trkpt lat="43.52064" lon="0.03214">
        <ele>161</ele>
        <time>2020-12-26T10:10:50Z</time>
      </trkpt>
      <trkpt lat="43.52072" lon="0.03217">
        <ele>161</ele>
        <time>2020-12-26T10:10:57Z</time>
      </trkpt>
      <trkpt lat="43.52083" lon="0.03226">
        <ele>161</ele>
        <time>2020-12-26T10:11:12Z</time>
      </trkpt>
      <trkpt lat="43.52091" lon="0.03236">
        <ele>162</ele>
        <time>2020-12-26T10:11:21Z</time>
      </trkpt>
      <trkpt lat="43.52122" lon="0.03265">
        <ele>162</ele>
        <time>2020-12-26T10:11:54Z</time>
      </trkpt>
      <trkpt lat="43.52127" lon="0.0327">
        <ele>162</ele>
        <time>2020-12-26T10:11:59Z</time>
      </trkpt>
      <trkpt lat="43.52164" lon="0.03286">
        <ele>162</ele>
        <time>2020-12-26T10:12:27Z</time>
      </trkpt>
      <trkpt lat="43.5218" lon="0.03288">
        <ele>162</ele>
        <time>2020-12-26T10:12:38Z</time>
      </trkpt>
      <trkpt lat="43.52187" lon="0.03283">
        <ele>162</ele>
        <time>2020-12-26T10:12:45Z</time>
      </trkpt>
      <trkpt lat="43.52201" lon="0.03276">
        <ele>162</ele>
        <time>2020-12-26T10:13:27Z</time>
      </trkpt>
      <trkpt lat="43.52207" lon="0.03275">
        <ele>162</ele>
        <time>2020-12-26T10:13:34Z</time>
      </trkpt>
      <trkpt lat="43.52213" lon="0.03271">
        <ele>162</ele>
        <time>2020-12-26T10:13:40Z</time>
      </trkpt>
      <trkpt lat="43.52218" lon="0.0327">
        <ele>162</ele>
        <time>2020-12-26T10:13:46Z</time>
      </trkpt>
      <trkpt lat="43.52221" lon="0.03263">
        <ele>162</ele>
        <time>2020-12-26T10:13:51Z</time>
      </trkpt>
      <trkpt lat="43.52224" lon="0.03254">
        <ele>162</ele>
        <time>2020-12-26T10:13:58Z</time>
      </trkpt>
      <trkpt lat="43.52228" lon="0.03248">
        <ele>162</ele>
        <time>2020-12-26T10:14:03Z</time>
      </trkpt>
      <trkpt lat="43.52233" lon="0.03243">
        <ele>162</ele>
        <time>2020-12-26T10:14:08Z</time>
      </trkpt>
      <trkpt lat="43.52236" lon="0.03234">
        <ele>162</ele>
        <time>2020-12-26T10:14:13Z</time>
      </trkpt>
      <trkpt lat="43.52242" lon="0.03232">
        <ele>162</ele>
        <time>2020-12-26T10:14:17Z</time>
      </trkpt>
      <trkpt lat="43.52251" lon="0.03221">
        <ele>162</ele>
        <time>2020-12-26T10:14:27Z</time>
      </trkpt>
      <trkpt lat="43.52258" lon="0.03216">
        <ele>162</ele>
        <time>2020-12-26T10:14:34Z</time>
      </trkpt>
      <trkpt lat="43.52264" lon="0.03202">
        <ele>161</ele>
        <time>2020-12-26T10:14:51Z</time>
      </trkpt>
      <trkpt lat="43.52263" lon="0.03188">
        <ele>161</ele>
        <time>2020-12-26T10:15:01Z</time>
      </trkpt>
      <trkpt lat="43.52264" lon="0.03178">
        <ele>160</ele>
        <time>2020-12-26T10:15:08Z</time>
      </trkpt>
      <trkpt lat="43.52258" lon="0.03158">
        <ele>160</ele>
        <time>2020-12-26T10:15:22Z</time>
      </trkpt>
      <trkpt lat="43.52272" lon="0.03177">
        <ele>161</ele>
        <time>2020-12-26T10:16:23Z</time>
      </trkpt>
      <trkpt lat="43.52291" lon="0.03177">
        <ele>163</ele>
        <time>2020-12-26T10:17:08Z</time>
      </trkpt>
      <trkpt lat="43.52303" lon="0.03165">
        <ele>163</ele>
        <time>2020-12-26T10:17:17Z</time>
      </trkpt>
      <trkpt lat="43.52316" lon="0.03158">
        <ele>163</ele>
        <time>2020-12-26T10:17:31Z</time>
      </trkpt>
      <trkpt lat="43.52331" lon="0.0316">
        <ele>163</ele>
        <time>2020-12-26T10:17:59Z</time>
      </trkpt>
      <trkpt lat="43.52341" lon="0.03176">
        <ele>163</ele>
        <time>2020-12-26T10:18:09Z</time>
      </trkpt>
      <trkpt lat="43.52355" lon="0.03186">
        <ele>163</ele>
        <time>2020-12-26T10:18:28Z</time>
      </trkpt>
      <trkpt lat="43.52362" lon="0.03187">
        <ele>162</ele>
        <time>2020-12-26T10:18:58Z</time>
      </trkpt>
      <trkpt lat="43.52369" lon="0.03182">
        <ele>162</ele>
        <time>2020-12-26T10:19:09Z</time>
      </trkpt>
      <trkpt lat="43.524" lon="0.03181">
        <ele>161</ele>
        <time>2020-12-26T10:19:36Z</time>
      </trkpt>
      <trkpt lat="43.52419" lon="0.03175">
        <ele>162</ele>
        <time>2020-12-26T10:19:56Z</time>
      </trkpt>
      <trkpt lat="43.52424" lon="0.03168">
        <ele>161</ele>
        <time>2020-12-26T10:20:04Z</time>
      </trkpt>
      <trkpt lat="43.52436" lon="0.03162">
        <ele>162</ele>
        <time>2020-12-26T10:20:38Z</time>
      </trkpt>
      <trkpt lat="43.52445" lon="0.03155">
        <ele>162</ele>
        <time>2020-12-26T10:20:46Z</time>
      </trkpt>
      <trkpt lat="43.52457" lon="0.03141">
        <ele>162</ele>
        <time>2020-12-26T10:20:54Z</time>
      </trkpt>
      <trkpt lat="43.52467" lon="0.03132">
        <ele>162</ele>
        <time>2020-12-26T10:21:00Z</time>
      </trkpt>
      <trkpt lat="43.52472" lon="0.03124">
        <ele>161</ele>
        <time>2020-12-26T10:21:06Z</time>
      </trkpt>
      <trkpt lat="43.52478" lon="0.03116">
        <ele>161</ele>
        <time>2020-12-26T10:21:24Z</time>
      </trkpt>
      <trkpt lat="43.52484" lon="0.03106">
        <ele>161</ele>
        <time>2020-12-26T10:21:36Z</time>
      </trkpt>
      <trkpt lat="43.52494" lon="0.03085">
        <ele>161</ele>
        <time>2020-12-26T10:22:07Z</time>
      </trkpt>
      <trkpt lat="43.52512" lon="0.03069">
        <ele>160</ele>
        <time>2020-12-26T10:22:27Z</time>
      </trkpt>
      <trkpt lat="43.52525" lon="0.03066">
        <ele>160</ele>
        <time>2020-12-26T10:22:41Z</time>
      </trkpt>
      <trkpt lat="43.52526" lon="0.03049">
        <ele>159</ele>
        <time>2020-12-26T10:22:58Z</time>
      </trkpt>
      <trkpt lat="43.5253" lon="0.02996">
        <ele>158</ele>
        <time>2020-12-26T10:23:34Z</time>
      </trkpt>
      <trkpt lat="43.52524" lon="0.02955">
        <ele>158</ele>
        <time>2020-12-26T10:24:03Z</time>
      </trkpt>
      <trkpt lat="43.5253" lon="0.02938">
        <ele>158</ele>
        <time>2020-12-26T10:24:18Z</time>
      </trkpt>
      <trkpt lat="43.52542" lon="0.02876">
        <ele>158</ele>
        <time>2020-12-26T10:25:04Z</time>
      </trkpt>
      <trkpt lat="43.52548" lon="0.02839">
        <ele>157</ele>
        <time>2020-12-26T10:25:35Z</time>
      </trkpt>
      <trkpt lat="43.52563" lon="0.02819">
        <ele>158</ele>
        <time>2020-12-26T10:26:01Z</time>
      </trkpt>
      <trkpt lat="43.5258" lon="0.02764">
        <ele>158</ele>
        <time>2020-12-26T10:26:40Z</time>
      </trkpt>
      <trkpt lat="43.52584" lon="0.02742">
        <ele>158</ele>
        <time>2020-12-26T10:26:51Z</time>
      </trkpt>
      <trkpt lat="43.52584" lon="0.02727">
        <ele>158</ele>
        <time>2020-12-26T10:27:00Z</time>
      </trkpt>
      <trkpt lat="43.52587" lon="0.02706">
        <ele>158</ele>
        <time>2020-12-26T10:27:12Z</time>
      </trkpt>
      <trkpt lat="43.52587" lon="0.02694">
        <ele>158</ele>
        <time>2020-12-26T10:27:17Z</time>
      </trkpt>
      <trkpt lat="43.52586" lon="0.02684">
        <ele>158</ele>
        <time>2020-12-26T10:27:22Z</time>
      </trkpt>
      <trkpt lat="43.52587" lon="0.02674">
        <ele>158</ele>
        <time>2020-12-26T10:27:30Z</time>
      </trkpt>
      <trkpt lat="43.52591" lon="0.02663">
        <ele>158</ele>
        <time>2020-12-26T10:27:41Z</time>
      </trkpt>
      <trkpt lat="43.52592" lon="0.02644">
        <ele>157</ele>
        <time>2020-12-26T10:28:01Z</time>
      </trkpt>
      <trkpt lat="43.52593" lon="0.02631">
        <ele>157</ele>
        <time>2020-12-26T10:28:58Z</time>
      </trkpt>
      <trkpt lat="43.52597" lon="0.02626">
        <ele>157</ele>
        <time>2020-12-26T10:29:18Z</time>
      </trkpt>
      <trkpt lat="43.52606" lon="0.02625">
        <ele>156</ele>
        <time>2020-12-26T10:29:40Z</time>
      </trkpt>
      <trkpt lat="43.52614" lon="0.02629">
        <ele>156</ele>
        <time>2020-12-26T10:29:55Z</time>
      </trkpt>
      <trkpt lat="43.5262" lon="0.0263">
        <ele>157</ele>
        <time>2020-12-26T10:30:45Z</time>
      </trkpt>
      <trkpt lat="43.52627" lon="0.02632">
        <ele>157</ele>
        <time>2020-12-26T10:31:35Z</time>
      </trkpt>
      <trkpt lat="43.52623" lon="0.0264">
        <ele>157</ele>
        <time>2020-12-26T10:36:04Z</time>
      </trkpt>
      <trkpt lat="43.52624" lon="0.02626">
        <ele>157</ele>
        <time>2020-12-26T10:36:42Z</time>
      </trkpt>
      <trkpt lat="43.52618" lon="0.02629">
        <ele>157</ele>
        <time>2020-12-26T10:37:06Z</time>
      </trkpt>
      <trkpt lat="43.52599" lon="0.02634">
        <ele>158</ele>
        <time>2020-12-26T10:37:19Z</time>
      </trkpt>
      <trkpt lat="43.52596" lon="0.02627">
        <ele>158</ele>
        <time>2020-12-26T10:37:27Z</time>
      </trkpt>
      <trkpt lat="43.52597" lon="0.02616">
        <ele>157</ele>
        <time>2020-12-26T10:37:39Z</time>
      </trkpt>
      <trkpt lat="43.52594" lon="0.02604">
        <ele>157</ele>
        <time>2020-12-26T10:37:46Z</time>
      </trkpt>
      <trkpt lat="43.52596" lon="0.02583">
        <ele>156</ele>
        <time>2020-12-26T10:37:56Z</time>
      </trkpt>
      <trkpt lat="43.52591" lon="0.0257">
        <ele>156</ele>
        <time>2020-12-26T10:38:10Z</time>
      </trkpt>
      <trkpt lat="43.52587" lon="0.02548">
        <ele>156</ele>
        <time>2020-12-26T10:38:24Z</time>
      </trkpt>
      <trkpt lat="43.52588" lon="0.02526">
        <ele>156</ele>
        <time>2020-12-26T10:38:35Z</time>
      </trkpt>
      <trkpt lat="43.5259" lon="0.02514">
        <ele>156</ele>
        <time>2020-12-26T10:38:43Z</time>
      </trkpt>
      <trkpt lat="43.52587" lon="0.02446">
        <ele>156</ele>
        <time>2020-12-26T10:39:24Z</time>
      </trkpt>
      <trkpt lat="43.52571" lon="0.02388">
        <ele>156</ele>
        <time>2020-12-26T10:39:55Z</time>
      </trkpt>
      <trkpt lat="43.52554" lon="0.02352">
        <ele>157</ele>
        <time>2020-12-26T10:40:13Z</time>
      </trkpt>
      <trkpt lat="43.52552" lon="0.02341">
        <ele>157</ele>
        <time>2020-12-26T10:40:23Z</time>
      </trkpt>
      <trkpt lat="43.5253" lon="0.02303">
        <ele>157</ele>
        <time>2020-12-26T10:40:48Z</time>
      </trkpt>
      <trkpt lat="43.52526" lon="0.02293">
        <ele>157</ele>
        <time>2020-12-26T10:40:53Z</time>
      </trkpt>
      <trkpt lat="43.52526" lon="0.02282">
        <ele>157</ele>
        <time>2020-12-26T10:41:00Z</time>
      </trkpt>
      <trkpt lat="43.52538" lon="0.02272">
        <ele>157</ele>
        <time>2020-12-26T10:41:13Z</time>
      </trkpt>
      <trkpt lat="43.52544" lon="0.02272">
        <ele>157</ele>
        <time>2020-12-26T10:41:18Z</time>
      </trkpt>
      <trkpt lat="43.52586" lon="0.0225">
        <ele>157</ele>
        <time>2020-12-26T10:41:52Z</time>
      </trkpt>
      <trkpt lat="43.52593" lon="0.02246">
        <ele>157</ele>
        <time>2020-12-26T10:41:59Z</time>
      </trkpt>
      <trkpt lat="43.52606" lon="0.02233">
        <ele>157</ele>
        <time>2020-12-26T10:42:14Z</time>
      </trkpt>
      <trkpt lat="43.52614" lon="0.02232">
        <ele>157</ele>
        <time>2020-12-26T10:42:20Z</time>
      </trkpt>
      <trkpt lat="43.52622" lon="0.02227">
        <ele>157</ele>
        <time>2020-12-26T10:42:25Z</time>
      </trkpt>
      <trkpt lat="43.52628" lon="0.0222">
        <ele>157</ele>
        <time>2020-12-26T10:42:31Z</time>
      </trkpt>
      <trkpt lat="43.5265" lon="0.02214">
        <ele>157</ele>
        <time>2020-12-26T10:42:52Z</time>
      </trkpt>
      <trkpt lat="43.52694" lon="0.02188">
        <ele>157</ele>
        <time>2020-12-26T10:43:26Z</time>
      </trkpt>
      <trkpt lat="43.52729" lon="0.02176">
        <ele>156</ele>
        <time>2020-12-26T10:43:57Z</time>
      </trkpt>
      <trkpt lat="43.52763" lon="0.02158">
        <ele>156</ele>
        <time>2020-12-26T10:44:24Z</time>
      </trkpt>
      <trkpt lat="43.52768" lon="0.02155">
        <ele>156</ele>
        <time>2020-12-26T10:44:42Z</time>
      </trkpt>
      <trkpt lat="43.52774" lon="0.02153">
        <ele>156</ele>
        <time>2020-12-26T10:45:02Z</time>
      </trkpt>
      <trkpt lat="43.52791" lon="0.02143">
        <ele>157</ele>
        <time>2020-12-26T10:45:17Z</time>
      </trkpt>
      <trkpt lat="43.52796" lon="0.02137">
        <ele>157</ele>
        <time>2020-12-26T10:45:22Z</time>
      </trkpt>
      <trkpt lat="43.52813" lon="0.02131">
        <ele>157</ele>
        <time>2020-12-26T10:45:36Z</time>
      </trkpt>
      <trkpt lat="43.52818" lon="0.0213">
        <ele>156</ele>
        <time>2020-12-26T10:48:04Z</time>
      </trkpt>
      <trkpt lat="43.52826" lon="0.02135">
        <ele>156</ele>
        <time>2020-12-26T10:48:45Z</time>
      </trkpt>
      <trkpt lat="43.52832" lon="0.02136">
        <ele>156</ele>
        <time>2020-12-26T10:48:53Z</time>
      </trkpt>
      <trkpt lat="43.52852" lon="0.02115">
        <ele>156</ele>
        <time>2020-12-26T10:49:16Z</time>
      </trkpt>
      <trkpt lat="43.52858" lon="0.02108">
        <ele>156</ele>
        <time>2020-12-26T10:49:22Z</time>
      </trkpt>
      <trkpt lat="43.52881" lon="0.02102">
        <ele>156</ele>
        <time>2020-12-26T10:49:39Z</time>
      </trkpt>
      <trkpt lat="43.52887" lon="0.02097">
        <ele>156</ele>
        <time>2020-12-26T10:49:46Z</time>
      </trkpt>
      <trkpt lat="43.52897" lon="0.02081">
        <ele>156</ele>
        <time>2020-12-26T10:49:59Z</time>
      </trkpt>
      <trkpt lat="43.5291" lon="0.02072">
        <ele>156</ele>
        <time>2020-12-26T10:50:10Z</time>
      </trkpt>
      <trkpt lat="43.52955" lon="0.02049">
        <ele>156</ele>
        <time>2020-12-26T10:50:48Z</time>
      </trkpt>
      <trkpt lat="43.52962" lon="0.02047">
        <ele>156</ele>
        <time>2020-12-26T10:50:56Z</time>
      </trkpt>
      <trkpt lat="43.52977" lon="0.02031">
        <ele>156</ele>
        <time>2020-12-26T10:51:11Z</time>
      </trkpt>
      <trkpt lat="43.52984" lon="0.02012">
        <ele>156</ele>
        <time>2020-12-26T10:51:20Z</time>
      </trkpt>
      <trkpt lat="43.53006" lon="0.01981">
        <ele>156</ele>
        <time>2020-12-26T10:51:49Z</time>
      </trkpt>
      <trkpt lat="43.53009" lon="0.0197">
        <ele>156</ele>
        <time>2020-12-26T10:51:56Z</time>
      </trkpt>
      <trkpt lat="43.53037" lon="0.01937">
        <ele>156</ele>
        <time>2020-12-26T10:52:32Z</time>
      </trkpt>
      <trkpt lat="43.53054" lon="0.01932">
        <ele>156</ele>
        <time>2020-12-26T10:52:48Z</time>
      </trkpt>
      <trkpt lat="43.53074" lon="0.01921">
        <ele>156</ele>
        <time>2020-12-26T10:53:04Z</time>
      </trkpt>
      <trkpt lat="43.53104" lon="0.01912">
        <ele>156</ele>
        <time>2020-12-26T10:53:24Z</time>
      </trkpt>
      <trkpt lat="43.53112" lon="0.01912">
        <ele>156</ele>
        <time>2020-12-26T10:53:29Z</time>
      </trkpt>
      <trkpt lat="43.53119" lon="0.01908">
        <ele>156</ele>
        <time>2020-12-26T10:53:35Z</time>
      </trkpt>
      <trkpt lat="43.53132" lon="0.01896">
        <ele>155</ele>
        <time>2020-12-26T10:53:46Z</time>
      </trkpt>
      <trkpt lat="43.53141" lon="0.0188">
        <ele>155</ele>
        <time>2020-12-26T10:53:57Z</time>
      </trkpt>
      <trkpt lat="43.53161" lon="0.01863">
        <ele>155</ele>
        <time>2020-12-26T10:54:12Z</time>
      </trkpt>
      <trkpt lat="43.53168" lon="0.01863">
        <ele>155</ele>
        <time>2020-12-26T10:54:19Z</time>
      </trkpt>
      <trkpt lat="43.53175" lon="0.01863">
        <ele>155</ele>
        <time>2020-12-26T10:54:26Z</time>
      </trkpt>
      <trkpt lat="43.53185" lon="0.01861">
        <ele>155</ele>
        <time>2020-12-26T10:54:34Z</time>
      </trkpt>
      <trkpt lat="43.53209" lon="0.01863">
        <ele>155</ele>
        <time>2020-12-26T10:54:51Z</time>
      </trkpt>
      <trkpt lat="43.53239" lon="0.01848">
        <ele>155</ele>
        <time>2020-12-26T10:55:21Z</time>
      </trkpt>
      <trkpt lat="43.5327" lon="0.01837">
        <ele>155</ele>
        <time>2020-12-26T10:55:46Z</time>
      </trkpt>
      <trkpt lat="43.53293" lon="0.01833">
        <ele>155</ele>
        <time>2020-12-26T10:56:06Z</time>
      </trkpt>
      <trkpt lat="43.53319" lon="0.01823">
        <ele>155</ele>
        <time>2020-12-26T10:56:32Z</time>
      </trkpt>
      <trkpt lat="43.53327" lon="0.01813">
        <ele>155</ele>
        <time>2020-12-26T10:56:45Z</time>
      </trkpt>
      <trkpt lat="43.53346" lon="0.01779">
        <ele>155</ele>
        <time>2020-12-26T10:57:16Z</time>
      </trkpt>
      <trkpt lat="43.53355" lon="0.01762">
        <ele>155</ele>
        <time>2020-12-26T10:57:26Z</time>
      </trkpt>
      <trkpt lat="43.53372" lon="0.0174">
        <ele>154</ele>
        <time>2020-12-26T10:57:44Z</time>
      </trkpt>
      <trkpt lat="43.53382" lon="0.01722">
        <ele>154</ele>
        <time>2020-12-26T10:57:56Z</time>
      </trkpt>
      <trkpt lat="43.53385" lon="0.01713">
        <ele>154</ele>
        <time>2020-12-26T10:58:02Z</time>
      </trkpt>
      <trkpt lat="43.53387" lon="0.01703">
        <ele>154</ele>
        <time>2020-12-26T10:58:08Z</time>
      </trkpt>
      <trkpt lat="43.53386" lon="0.0169">
        <ele>154</ele>
        <time>2020-12-26T10:58:21Z</time>
      </trkpt>
      <trkpt lat="43.53394" lon="0.01686">
        <ele>154</ele>
        <time>2020-12-26T10:58:52Z</time>
      </trkpt>
      <trkpt lat="43.534" lon="0.01684">
        <ele>153</ele>
        <time>2020-12-26T10:59:52Z</time>
      </trkpt>
      <trkpt lat="43.53409" lon="0.01687">
        <ele>152</ele>
        <time>2020-12-26T11:00:23Z</time>
      </trkpt>
      <trkpt lat="43.53417" lon="0.01667">
        <ele>152</ele>
        <time>2020-12-26T11:00:34Z</time>
      </trkpt>
      <trkpt lat="43.53419" lon="0.01627">
        <ele>152</ele>
        <time>2020-12-26T11:00:55Z</time>
      </trkpt>
      <trkpt lat="43.53414" lon="0.01607">
        <ele>152</ele>
        <time>2020-12-26T11:01:05Z</time>
      </trkpt>
      <trkpt lat="43.5341" lon="0.01598">
        <ele>152</ele>
        <time>2020-12-26T11:01:10Z</time>
      </trkpt>
      <trkpt lat="43.53405" lon="0.01591">
        <ele>152</ele>
        <time>2020-12-26T11:01:13Z</time>
      </trkpt>
      <trkpt lat="43.53403" lon="0.01585">
        <ele>152</ele>
        <time>2020-12-26T11:01:16Z</time>
      </trkpt>
      <trkpt lat="43.53399" lon="0.01579">
        <ele>152</ele>
        <time>2020-12-26T11:01:19Z</time>
      </trkpt>
      <trkpt lat="43.53397" lon="0.01571">
        <ele>152</ele>
        <time>2020-12-26T11:01:24Z</time>
      </trkpt>
      <trkpt lat="43.53397" lon="0.01553">
        <ele>152</ele>
        <time>2020-12-26T11:01:31Z</time>
      </trkpt>
      <trkpt lat="43.53398" lon="0.01546">
        <ele>152</ele>
        <time>2020-12-26T11:01:41Z</time>
      </trkpt>
      <trkpt lat="43.534" lon="0.01526">
        <ele>153</ele>
        <time>2020-12-26T11:02:26Z</time>
      </trkpt>
      <trkpt lat="43.53404" lon="0.01516">
        <ele>153</ele>
        <time>2020-12-26T11:02:36Z</time>
      </trkpt>
      <trkpt lat="43.53405" lon="0.01505">
        <ele>153</ele>
        <time>2020-12-26T11:02:43Z</time>
      </trkpt>
      <trkpt lat="43.53403" lon="0.01493">
        <ele>153</ele>
        <time>2020-12-26T11:02:49Z</time>
      </trkpt>
      <trkpt lat="43.53399" lon="0.01482">
        <ele>153</ele>
        <time>2020-12-26T11:02:55Z</time>
      </trkpt>
      <trkpt lat="43.53397" lon="0.01462">
        <ele>153</ele>
        <time>2020-12-26T11:03:05Z</time>
      </trkpt>
      <trkpt lat="43.53399" lon="0.01451">
        <ele>153</ele>
        <time>2020-12-26T11:03:09Z</time>
      </trkpt>
      <trkpt lat="43.53395" lon="0.0143">
        <ele>153</ele>
        <time>2020-12-26T11:03:21Z</time>
      </trkpt>
      <trkpt lat="43.53396" lon="0.01416">
        <ele>153</ele>
        <time>2020-12-26T11:03:29Z</time>
      </trkpt>
      <trkpt lat="43.53384" lon="0.01354">
        <ele>153</ele>
        <time>2020-12-26T11:04:02Z</time>
      </trkpt>
      <trkpt lat="43.53382" lon="0.01293">
        <ele>154</ele>
        <time>2020-12-26T11:04:37Z</time>
      </trkpt>
      <trkpt lat="43.53376" lon="0.01228">
        <ele>154</ele>
        <time>2020-12-26T11:05:12Z</time>
      </trkpt>
      <trkpt lat="43.53373" lon="0.01218">
        <ele>154</ele>
        <time>2020-12-26T11:05:19Z</time>
      </trkpt>
      <trkpt lat="43.53372" lon="0.01205">
        <ele>154</ele>
        <time>2020-12-26T11:05:28Z</time>
      </trkpt>
      <trkpt lat="43.53373" lon="0.01193">
        <ele>155</ele>
        <time>2020-12-26T11:05:34Z</time>
      </trkpt>
      <trkpt lat="43.53362" lon="0.01143">
        <ele>155</ele>
        <time>2020-12-26T11:06:04Z</time>
      </trkpt>
      <trkpt lat="43.53361" lon="0.01132">
        <ele>155</ele>
        <time>2020-12-26T11:06:10Z</time>
      </trkpt>
      <trkpt lat="43.53358" lon="0.01123">
        <ele>155</ele>
        <time>2020-12-26T11:06:17Z</time>
      </trkpt>
      <trkpt lat="43.53347" lon="0.01067">
        <ele>155</ele>
        <time>2020-12-26T11:06:47Z</time>
      </trkpt>
      <trkpt lat="43.53344" lon="0.01028">
        <ele>154</ele>
        <time>2020-12-26T11:07:14Z</time>
      </trkpt>
      <trkpt lat="43.53336" lon="0.01008">
        <ele>154</ele>
        <time>2020-12-26T11:07:35Z</time>
      </trkpt>
      <trkpt lat="43.53336" lon="0.00997">
        <ele>154</ele>
        <time>2020-12-26T11:07:42Z</time>
      </trkpt>
      <trkpt lat="43.53333" lon="0.00988">
        <ele>154</ele>
        <time>2020-12-26T11:07:46Z</time>
      </trkpt>
      <trkpt lat="43.5333" lon="0.00954">
        <ele>154</ele>
        <time>2020-12-26T11:08:04Z</time>
      </trkpt>
      <trkpt lat="43.5332" lon="0.00901">
        <ele>154</ele>
        <time>2020-12-26T11:08:34Z</time>
      </trkpt>
      <trkpt lat="43.53315" lon="0.00877">
        <ele>154</ele>
        <time>2020-12-26T11:08:53Z</time>
      </trkpt>
      <trkpt lat="43.53326" lon="0.00869">
        <ele>153</ele>
        <time>2020-12-26T11:09:11Z</time>
      </trkpt>
      <trkpt lat="43.53363" lon="0.00857">
        <ele>153</ele>
        <time>2020-12-26T11:09:46Z</time>
      </trkpt>
      <trkpt lat="43.53371" lon="0.00855">
        <ele>153</ele>
        <time>2020-12-26T11:09:54Z</time>
      </trkpt>
      <trkpt lat="43.53401" lon="0.00851">
        <ele>154</ele>
        <time>2020-12-26T11:10:17Z</time>
      </trkpt>
      <trkpt lat="43.53417" lon="0.00848">
        <ele>153</ele>
        <time>2020-12-26T11:10:27Z</time>
      </trkpt>
      <trkpt lat="43.53459" lon="0.00845">
        <ele>153</ele>
        <time>2020-12-26T11:10:58Z</time>
      </trkpt>
      <trkpt lat="43.53473" lon="0.00848">
        <ele>153</ele>
        <time>2020-12-26T11:11:11Z</time>
      </trkpt>
      <trkpt lat="43.53482" lon="0.00845">
        <ele>153</ele>
        <time>2020-12-26T11:11:17Z</time>
      </trkpt>
      <trkpt lat="43.53497" lon="0.00845">
        <ele>153</ele>
        <time>2020-12-26T11:11:29Z</time>
      </trkpt>
      <trkpt lat="43.53505" lon="0.00843">
        <ele>153</ele>
        <time>2020-12-26T11:11:35Z</time>
      </trkpt>
      <trkpt lat="43.53543" lon="0.00837">
        <ele>153</ele>
        <time>2020-12-26T11:12:06Z</time>
      </trkpt>
      <trkpt lat="43.53566" lon="0.00833">
        <ele>153</ele>
        <time>2020-12-26T11:12:25Z</time>
      </trkpt>
      <trkpt lat="43.53575" lon="0.00833">
        <ele>153</ele>
        <time>2020-12-26T11:12:31Z</time>
      </trkpt>
      <trkpt lat="43.53583" lon="0.00831">
        <ele>153</ele>
        <time>2020-12-26T11:12:36Z</time>
      </trkpt>
      <trkpt lat="43.53623" lon="0.00831">
        <ele>153</ele>
        <time>2020-12-26T11:13:05Z</time>
      </trkpt>
      <trkpt lat="43.53636" lon="0.00824">
        <ele>153</ele>
        <time>2020-12-26T11:13:20Z</time>
      </trkpt>
      <trkpt lat="43.53659" lon="0.00828">
        <ele>153</ele>
        <time>2020-12-26T11:13:41Z</time>
      </trkpt>
      <trkpt lat="43.53669" lon="0.0083">
        <ele>153</ele>
        <time>2020-12-26T11:13:51Z</time>
      </trkpt>
      <trkpt lat="43.53708" lon="0.00826">
        <ele>153</ele>
        <time>2020-12-26T11:14:22Z</time>
      </trkpt>
      <trkpt lat="43.5374" lon="0.00823">
        <ele>153</ele>
        <time>2020-12-26T11:14:52Z</time>
      </trkpt>
      <trkpt lat="43.53758" lon="0.0082">
        <ele>153</ele>
        <time>2020-12-26T11:15:06Z</time>
      </trkpt>
      <trkpt lat="43.53773" lon="0.00814">
        <ele>153</ele>
        <time>2020-12-26T11:15:19Z</time>
      </trkpt>
      <trkpt lat="43.53781" lon="0.00813">
        <ele>153</ele>
        <time>2020-12-26T11:15:25Z</time>
      </trkpt>
      <trkpt lat="43.53829" lon="0.00788">
        <ele>153</ele>
        <time>2020-12-26T11:16:11Z</time>
      </trkpt>
      <trkpt lat="43.53844" lon="0.00778">
        <ele>153</ele>
        <time>2020-12-26T11:16:24Z</time>
      </trkpt>
      <trkpt lat="43.53881" lon="0.00764">
        <ele>153</ele>
        <time>2020-12-26T11:16:53Z</time>
      </trkpt>
      <trkpt lat="43.53895" lon="0.00753">
        <ele>153</ele>
        <time>2020-12-26T11:17:05Z</time>
      </trkpt>
      <trkpt lat="43.53942" lon="0.00733">
        <ele>153</ele>
        <time>2020-12-26T11:17:38Z</time>
      </trkpt>
      <trkpt lat="43.5395" lon="0.00731">
        <ele>153</ele>
        <time>2020-12-26T11:17:44Z</time>
      </trkpt>
      <trkpt lat="43.53957" lon="0.00733">
        <ele>153</ele>
        <time>2020-12-26T11:17:49Z</time>
      </trkpt>
      <trkpt lat="43.53964" lon="0.00736">
        <ele>152</ele>
        <time>2020-12-26T11:17:59Z</time>
      </trkpt>
      <trkpt lat="43.53972" lon="0.0073">
        <ele>152</ele>
        <time>2020-12-26T11:19:03Z</time>
      </trkpt>
      <trkpt lat="43.53984" lon="0.00725">
        <ele>152</ele>
        <time>2020-12-26T11:19:12Z</time>
      </trkpt>
      <trkpt lat="43.53992" lon="0.00717">
        <ele>152</ele>
        <time>2020-12-26T11:19:20Z</time>
      </trkpt>
      <trkpt lat="43.54014" lon="0.00705">
        <ele>152</ele>
        <time>2020-12-26T11:19:39Z</time>
      </trkpt>
      <trkpt lat="43.54027" lon="0.00695">
        <ele>152</ele>
        <time>2020-12-26T11:19:52Z</time>
      </trkpt>
      <trkpt lat="43.54073" lon="0.00673">
        <ele>152</ele>
        <time>2020-12-26T11:20:25Z</time>
      </trkpt>
      <trkpt lat="43.54088" lon="0.00667">
        <ele>152</ele>
        <time>2020-12-26T11:20:38Z</time>
      </trkpt>
      <trkpt lat="43.54106" lon="0.00656">
        <ele>152</ele>
        <time>2020-12-26T11:21:00Z</time>
      </trkpt>
      <trkpt lat="43.54123" lon="0.00649">
        <ele>152</ele>
        <time>2020-12-26T11:21:13Z</time>
      </trkpt>
      <trkpt lat="43.5415" lon="0.00624">
        <ele>152</ele>
        <time>2020-12-26T11:21:41Z</time>
      </trkpt>
      <trkpt lat="43.54194" lon="0.00605">
        <ele>152</ele>
        <time>2020-12-26T11:22:15Z</time>
      </trkpt>
      <trkpt lat="43.54223" lon="0.00593">
        <ele>151</ele>
        <time>2020-12-26T11:22:38Z</time>
      </trkpt>
      <trkpt lat="43.54257" lon="0.00574">
        <ele>151</ele>
        <time>2020-12-26T11:23:10Z</time>
      </trkpt>
      <trkpt lat="43.54262" lon="0.00573">
        <ele>151</ele>
        <time>2020-12-26T11:23:15Z</time>
      </trkpt>
      <trkpt lat="43.5427" lon="0.00579">
        <ele>151</ele>
        <time>2020-12-26T11:23:29Z</time>
      </trkpt>
      <trkpt lat="43.5428" lon="0.00603">
        <ele>151</ele>
        <time>2020-12-26T11:23:42Z</time>
      </trkpt>
      <trkpt lat="43.54284" lon="0.00618">
        <ele>151</ele>
        <time>2020-12-26T11:23:50Z</time>
      </trkpt>
      <trkpt lat="43.54292" lon="0.00667">
        <ele>151</ele>
        <time>2020-12-26T11:24:18Z</time>
      </trkpt>
      <trkpt lat="43.54296" lon="0.0068">
        <ele>151</ele>
        <time>2020-12-26T11:24:27Z</time>
      </trkpt>
      <trkpt lat="43.54301" lon="0.00699">
        <ele>151</ele>
        <time>2020-12-26T11:24:38Z</time>
      </trkpt>
      <trkpt lat="43.54319" lon="0.00752">
        <ele>151</ele>
        <time>2020-12-26T11:25:11Z</time>
      </trkpt>
      <trkpt lat="43.54329" lon="0.00791">
        <ele>151</ele>
        <time>2020-12-26T11:25:37Z</time>
      </trkpt>
      <trkpt lat="43.5433" lon="0.00798">
        <ele>151</ele>
        <time>2020-12-26T11:25:42Z</time>
      </trkpt>
      <trkpt lat="43.54351" lon="0.00861">
        <ele>151</ele>
        <time>2020-12-26T11:26:17Z</time>
      </trkpt>
      <trkpt lat="43.54355" lon="0.0087">
        <ele>151</ele>
        <time>2020-12-26T11:26:22Z</time>
      </trkpt>
      <trkpt lat="43.5436" lon="0.009">
        <ele>151</ele>
        <time>2020-12-26T11:26:40Z</time>
      </trkpt>
      <trkpt lat="43.54367" lon="0.00898">
        <ele>151</ele>
        <time>2020-12-26T11:26:48Z</time>
      </trkpt>
      <trkpt lat="43.54382" lon="0.00886">
        <ele>151</ele>
        <time>2020-12-26T11:27:10Z</time>
      </trkpt>
      <trkpt lat="43.54389" lon="0.00887">
        <ele>151</ele>
        <time>2020-12-26T11:27:27Z</time>
      </trkpt>
      <trkpt lat="43.54397" lon="0.00883">
        <ele>151</ele>
        <time>2020-12-26T11:27:52Z</time>
      </trkpt>
      <trkpt lat="43.54415" lon="0.00871">
        <ele>151</ele>
        <time>2020-12-26T11:28:15Z</time>
      </trkpt>
      <trkpt lat="43.54421" lon="0.0087">
        <ele>151</ele>
        <time>2020-12-26T11:28:21Z</time>
      </trkpt>
      <trkpt lat="43.54428" lon="0.00861">
        <ele>151</ele>
        <time>2020-12-26T11:28:34Z</time>
      </trkpt>
      <trkpt lat="43.54444" lon="0.00848">
        <ele>151</ele>
        <time>2020-12-26T11:28:49Z</time>
      </trkpt>
      <trkpt lat="43.54453" lon="0.00844">
        <ele>151</ele>
        <time>2020-12-26T11:28:59Z</time>
      </trkpt>
      <trkpt lat="43.54458" lon="0.00841">
        <ele>151</ele>
        <time>2020-12-26T11:29:03Z</time>
      </trkpt>
      <trkpt lat="43.54476" lon="0.00819">
        <ele>151</ele>
        <time>2020-12-26T11:29:24Z</time>
      </trkpt>
      <trkpt lat="43.54479" lon="0.00813">
        <ele>151</ele>
        <time>2020-12-26T11:29:28Z</time>
      </trkpt>
      <trkpt lat="43.54487" lon="0.00802">
        <ele>151</ele>
        <time>2020-12-26T11:29:38Z</time>
      </trkpt>
      <trkpt lat="43.54497" lon="0.00784">
        <ele>151</ele>
        <time>2020-12-26T11:29:54Z</time>
      </trkpt>
      <trkpt lat="43.54501" lon="0.00779">
        <ele>151</ele>
        <time>2020-12-26T11:30:00Z</time>
      </trkpt>
      <trkpt lat="43.54511" lon="0.00771">
        <ele>151</ele>
        <time>2020-12-26T11:30:10Z</time>
      </trkpt>
      <trkpt lat="43.54522" lon="0.00766">
        <ele>150</ele>
        <time>2020-12-26T11:30:22Z</time>
      </trkpt>
      <trkpt lat="43.54544" lon="0.00747">
        <ele>150</ele>
        <time>2020-12-26T11:30:47Z</time>
      </trkpt>
      <trkpt lat="43.54577" lon="0.00728">
        <ele>149</ele>
        <time>2020-12-26T11:31:19Z</time>
      </trkpt>
      <trkpt lat="43.54583" lon="0.00727">
        <ele>149</ele>
        <time>2020-12-26T11:31:24Z</time>
      </trkpt>
      <trkpt lat="43.54599" lon="0.00719">
        <ele>149</ele>
        <time>2020-12-26T11:31:41Z</time>
      </trkpt>
      <trkpt lat="43.5461" lon="0.00716">
        <ele>149</ele>
        <time>2020-12-26T11:31:51Z</time>
      </trkpt>
      <trkpt lat="43.54646" lon="0.00694">
        <ele>149</ele>
        <time>2020-12-26T11:32:24Z</time>
      </trkpt>
      <trkpt lat="43.54653" lon="0.00693">
        <ele>149</ele>
        <time>2020-12-26T11:32:29Z</time>
      </trkpt>
      <trkpt lat="43.5468" lon="0.00681">
        <ele>150</ele>
        <time>2020-12-26T11:32:54Z</time>
      </trkpt>
      <trkpt lat="43.54685" lon="0.0068">
        <ele>150</ele>
        <time>2020-12-26T11:32:59Z</time>
      </trkpt>
      <trkpt lat="43.54702" lon="0.00674">
        <ele>150</ele>
        <time>2020-12-26T11:33:13Z</time>
      </trkpt>
      <trkpt lat="43.54707" lon="0.00674">
        <ele>149</ele>
        <time>2020-12-26T11:33:20Z</time>
      </trkpt>
      <trkpt lat="43.54718" lon="0.0068">
        <ele>150</ele>
        <time>2020-12-26T11:34:33Z</time>
      </trkpt>
      <trkpt lat="43.54736" lon="0.00676">
        <ele>150</ele>
        <time>2020-12-26T11:34:56Z</time>
      </trkpt>
      <trkpt lat="43.54748" lon="0.00672">
        <ele>150</ele>
        <time>2020-12-26T11:35:11Z</time>
      </trkpt>
      <trkpt lat="43.5476" lon="0.00666">
        <ele>150</ele>
        <time>2020-12-26T11:35:29Z</time>
      </trkpt>
      <trkpt lat="43.54767" lon="0.00662">
        <ele>150</ele>
        <time>2020-12-26T11:35:37Z</time>
      </trkpt>
      <trkpt lat="43.54773" lon="0.00657">
        <ele>149</ele>
        <time>2020-12-26T11:35:49Z</time>
      </trkpt>
      <trkpt lat="43.54798" lon="0.00645">
        <ele>149</ele>
        <time>2020-12-26T11:36:23Z</time>
      </trkpt>
      <trkpt lat="43.54814" lon="0.00634">
        <ele>149</ele>
        <time>2020-12-26T11:36:32Z</time>
      </trkpt>
      <trkpt lat="43.5482" lon="0.00627">
        <ele>149</ele>
        <time>2020-12-26T11:36:35Z</time>
      </trkpt>
      <trkpt lat="43.54834" lon="0.00621">
        <ele>149</ele>
        <time>2020-12-26T11:36:43Z</time>
      </trkpt>
      <trkpt lat="43.54857" lon="0.00617">
        <ele>149</ele>
        <time>2020-12-26T11:36:58Z</time>
      </trkpt>
      <trkpt lat="43.54899" lon="0.00598">
        <ele>149</ele>
        <time>2020-12-26T11:37:29Z</time>
      </trkpt>
      <trkpt lat="43.54905" lon="0.00599">
        <ele>149</ele>
        <time>2020-12-26T11:37:33Z</time>
      </trkpt>
      <trkpt lat="43.54928" lon="0.00592">
        <ele>149</ele>
        <time>2020-12-26T11:37:51Z</time>
      </trkpt>
      <trkpt lat="43.54933" lon="0.00588">
        <ele>148</ele>
        <time>2020-12-26T11:37:57Z</time>
      </trkpt>
      <trkpt lat="43.54973" lon="0.00571">
        <ele>148</ele>
        <time>2020-12-26T11:38:29Z</time>
      </trkpt>
      <trkpt lat="43.55008" lon="0.00559">
        <ele>148</ele>
        <time>2020-12-26T11:38:59Z</time>
      </trkpt>
      <trkpt lat="43.55026" lon="0.00553">
        <ele>148</ele>
        <time>2020-12-26T11:39:12Z</time>
      </trkpt>
      <trkpt lat="43.55037" lon="0.00544">
        <ele>148</ele>
        <time>2020-12-26T11:39:27Z</time>
      </trkpt>
      <trkpt lat="43.55072" lon="0.00531">
        <ele>148</ele>
        <time>2020-12-26T11:40:00Z</time>
      </trkpt>
      <trkpt lat="43.55108" lon="0.00522">
        <ele>148</ele>
        <time>2020-12-26T11:40:31Z</time>
      </trkpt>
      <trkpt lat="43.55131" lon="0.0051">
        <ele>148</ele>
        <time>2020-12-26T11:40:52Z</time>
      </trkpt>
      <trkpt lat="43.55143" lon="0.00504">
        <ele>148</ele>
        <time>2020-12-26T11:41:02Z</time>
      </trkpt>
      <trkpt lat="43.5515" lon="0.00486">
        <ele>148</ele>
        <time>2020-12-26T11:41:18Z</time>
      </trkpt>
      <trkpt lat="43.55162" lon="0.00472">
        <ele>148</ele>
        <time>2020-12-26T11:41:31Z</time>
      </trkpt>
      <trkpt lat="43.5517" lon="0.00469">
        <ele>148</ele>
        <time>2020-12-26T11:41:39Z</time>
      </trkpt>
      <trkpt lat="43.55199" lon="0.00442">
        <ele>148</ele>
        <time>2020-12-26T11:42:06Z</time>
      </trkpt>
      <trkpt lat="43.55205" lon="0.00437">
        <ele>148</ele>
        <time>2020-12-26T11:42:12Z</time>
      </trkpt>
      <trkpt lat="43.55238" lon="0.0042">
        <ele>148</ele>
        <time>2020-12-26T11:42:46Z</time>
      </trkpt>
      <trkpt lat="43.55252" lon="0.00415">
        <ele>148</ele>
        <time>2020-12-26T11:43:00Z</time>
      </trkpt>
      <trkpt lat="43.55276" lon="0.00401">
        <ele>148</ele>
        <time>2020-12-26T11:43:24Z</time>
      </trkpt>
      <trkpt lat="43.55288" lon="0.00396">
        <ele>148</ele>
        <time>2020-12-26T11:43:33Z</time>
      </trkpt>
      <trkpt lat="43.55293" lon="0.00392">
        <ele>147</ele>
        <time>2020-12-26T11:43:39Z</time>
      </trkpt>
      <trkpt lat="43.55295" lon="0.00382">
        <ele>148</ele>
        <time>2020-12-26T11:43:51Z</time>
      </trkpt>
      <trkpt lat="43.5529" lon="0.00337">
        <ele>147</ele>
        <time>2020-12-26T11:44:27Z</time>
      </trkpt>
      <trkpt lat="43.55297" lon="0.00339">
        <ele>147</ele>
        <time>2020-12-26T11:45:32Z</time>
      </trkpt>
    </trkseg>
  </trk>
</gpx>